Observation data for Fort Chadbourne on 06/14/2019      Previous  Date  Next       Current Mesonet Observations  Soil Data  Daily Summary Page  Observations in Plain Language
KCH1 140500Z 14007KT 22/15 A3003 RMK A01 T02230145  RH  061%=      5-min Rain = 0
KCH1 140501Z 14006KT 22/15 A3003 RMK A01 T02230146  RH  062%=      5-min Rain = 0
KCH1 140502Z 14007KT 22/15 A3003 RMK A01 T02230146  RH  062%=      5-min Rain = 0
KCH1 140503Z 14006KT 22/15 A3003 RMK A01 T02230146  RH  062%=      5-min Rain = 0
KCH1 140504Z 14006KT 22/15 A3003 RMK A01 T02230147  RH  062%=      5-min Rain = 0
KCH1 140505Z 14006KT 22/15 A3003 RMK A01 T02220147  RH  062%=      5-min Rain = 0
KCH1 140506Z 14007KT 22/15 A3003 RMK A01 T02220147  RH  062%=      5-min Rain = 0
KCH1 140507Z 14006KT 22/15 A3003 RMK A01 T02220148  RH  063%=      5-min Rain = 0
KCH1 140508Z 14007KT 22/15 A3003 RMK A01 T02220148  RH  063%=      5-min Rain = 0
KCH1 140509Z 15005KT 22/15 A3003 RMK A01 T02220149  RH  063%=      5-min Rain = 0
KCH1 140510Z 14006KT 22/15 A3003 RMK A01 T02220149  RH  064%=      5-min Rain = 0
KCH1 140511Z 15005KT 22/15 A3004 RMK A01 T02210149  RH  064%=      5-min Rain = 0
KCH1 140512Z 15005KT 22/15 A3004 RMK A01 T02210150  RH  064%=      5-min Rain = 0
KCH1 140513Z 15005KT 22/15 A3004 RMK A01 T02210150  RH  064%=      5-min Rain = 0
KCH1 140514Z 16005KT 22/15 A3004 RMK A01 T02210150  RH  064%=      5-min Rain = 0
KCH1 140515Z 16005KT 22/15 A3004 RMK A01 T02200150  RH  064%=      5-min Rain = 0
KCH1 140516Z 15005KT 22/15 A3004 RMK A01 T02200151  RH  064%=      5-min Rain = 0
KCH1 140517Z 15006KT 22/15 A3004 RMK A01 T02200151  RH  065%=      5-min Rain = 0
KCH1 140518Z 15006KT 22/15 A3004 RMK A01 T02210151  RH  065%=      5-min Rain = 0
KCH1 140519Z 15006KT 22/15 A3004 RMK A01 T02200151  RH  065%=      5-min Rain = 0
KCH1 140520Z 15006KT 22/15 A3003 RMK A01 T02200152  RH  065%=      5-min Rain = 0
KCH1 140521Z 15006KT 22/15 A3003 RMK A01 T02190152  RH  066%=      5-min Rain = 0
KCH1 140522Z 15004KT 22/15 A3003 RMK A01 T02190153  RH  066%=      5-min Rain = 0
KCH1 140523Z 14005KT 22/15 A3004 RMK A01 T02180153  RH  067%=      5-min Rain = 0
KCH1 140524Z 14005KT 22/15 A3004 RMK A01 T02180153  RH  067%=      5-min Rain = 0
KCH1 140525Z 15005KT 22/15 A3004 RMK A01 T02170154  RH  067%=      5-min Rain = 0
KCH1 140526Z 15005KT 22/15 A3004 RMK A01 T02160153  RH  067%=      5-min Rain = 0
KCH1 140527Z 15005KT 22/15 A3004 RMK A01 T02160154  RH  068%=      5-min Rain = 0
KCH1 140528Z 16005KT 22/15 A3004 RMK A01 T02160154  RH  068%=      5-min Rain = 0
KCH1 140529Z 16005KT 22/16 A3004 RMK A01 T02160155  RH  068%=      5-min Rain = 0
KCH1 140530Z 16005KT 22/15 A3004 RMK A01 T02160154  RH  068%=      5-min Rain = 0
KCH1 140531Z 16005KT 22/15 A3004 RMK A01 T02160154  RH  068%=      5-min Rain = 0
KCH1 140532Z 16004KT 22/16 A3004 RMK A01 T02170155  RH  068%=      5-min Rain = 0
KCH1 140533Z 16004KT 22/16 A3004 RMK A01 T02160155  RH  068%=      5-min Rain = 0
KCH1 140534Z 16005KT 22/16 A3004 RMK A01 T02170156  RH  068%=      5-min Rain = 0
KCH1 140535Z 16005KT 22/16 A3004 RMK A01 T02160156  RH  069%=      5-min Rain = 0
KCH1 140536Z 16005KT 22/16 A3004 RMK A01 T02160157  RH  069%=      5-min Rain = 0
KCH1 140537Z 16005KT 22/16 A3004 RMK A01 T02160157  RH  069%=      5-min Rain = 0
KCH1 140538Z 16005KT 22/16 A3004 RMK A01 T02160157  RH  069%=      5-min Rain = 0
KCH1 140539Z 16005KT 22/16 A3004 RMK A01 T02160157  RH  069%=      5-min Rain = 0
KCH1 140540Z 15006KT 22/16 A3004 RMK A01 T02160158  RH  070%=      5-min Rain = 0
KCH1 140541Z 15005KT 22/16 A3004 RMK A01 T02160158  RH  070%=      5-min Rain = 0
KCH1 140542Z 16004KT 22/16 A3004 RMK A01 T02160159  RH  070%=      5-min Rain = 0
KCH1 140543Z 16005KT 22/16 A3005 RMK A01 T02160159  RH  070%=      5-min Rain = 0
KCH1 140544Z 17004KT 22/16 A3005 RMK A01 T02160160  RH  070%=      5-min Rain = 0
KCH1 140545Z 17004KT 22/16 A3005 RMK A01 T02160161  RH  071%=      5-min Rain = 0
KCH1 140546Z 17004KT 22/16 A3005 RMK A01 T02150160  RH  071%=      5-min Rain = 0
KCH1 140547Z 18003KT 22/16 A3005 RMK A01 T02150160  RH  071%=      5-min Rain = 0
KCH1 140548Z 18003KT 22/16 A3005 RMK A01 T02160161  RH  071%=      5-min Rain = 0
KCH1 140549Z 18003KT 22/16 A3005 RMK A01 T02150161  RH  071%=      5-min Rain = 0
KCH1 140550Z 18003KT 22/16 A3005 RMK A01 T02150161  RH  071%=      5-min Rain = 0
KCH1 140551Z 19002KT 22/16 A3005 RMK A01 T02150161  RH  071%=      5-min Rain = 0
KCH1 140552Z 19003KT 22/16 A3005 RMK A01 T02150161  RH  072%=      5-min Rain = 0
KCH1 140553Z 20003KT 22/16 A3005 RMK A01 T02150161  RH  072%=      5-min Rain = 0
KCH1 140554Z 20002KT 22/16 A3005 RMK A01 T02150162  RH  072%=      5-min Rain = 0
KCH1 140555Z 20003KT 22/16 A3005 RMK A01 T02150162  RH  072%=      5-min Rain = 0
KCH1 140556Z 19003KT 21/16 A3005 RMK A01 T02140161  RH  072%=      5-min Rain = 0
KCH1 140557Z 19003KT 21/16 A3005 RMK A01 T02140161  RH  072%=      5-min Rain = 0
KCH1 140558Z 18003KT 21/16 A3005 RMK A01 T02140162  RH  072%=      5-min Rain = 0
KCH1 140559Z 18004KT 21/16 A3005 RMK A01 T02140162  RH  072%=      5-min Rain = 0
KCH1 140600Z 18003KT 21/16 A3005 RMK A01 T02140162  RH  072%=      5-min Rain = 0
KCH1 140601Z 17004KT 21/16 A3005 RMK A01 T02140163  RH  073%=      5-min Rain = 0
KCH1 140602Z 17004KT 21/16 A3005 RMK A01 T02140163  RH  073%=      5-min Rain = 0
KCH1 140603Z 17004KT 21/16 A3005 RMK A01 T02130163  RH  073%=      5-min Rain = 0
KCH1 140604Z 17004KT 21/16 A3005 RMK A01 T02130163  RH  073%=      5-min Rain = 0
KCH1 140605Z 16004KT 21/16 A3005 RMK A01 T02130164  RH  074%=      5-min Rain = 0
KCH1 140606Z 16004KT 21/16 A3004 RMK A01 T02130164  RH  074%=      5-min Rain = 0
KCH1 140607Z 15004KT 21/17 A3004 RMK A01 T02130165  RH  074%=      5-min Rain = 0
KCH1 140608Z 15004KT 21/17 A3004 RMK A01 T02120165  RH  074%=      5-min Rain = 0
KCH1 140609Z 15004KT 21/17 A3004 RMK A01 T02120165  RH  075%=      5-min Rain = 0
KCH1 140610Z 15004KT 21/17 A3004 RMK A01 T02120166  RH  075%=      5-min Rain = 0
KCH1 140611Z 15004KT 21/17 A3004 RMK A01 T02110167  RH  076%=      5-min Rain = 0
KCH1 140612Z 15004KT 21/17 A3004 RMK A01 T02110167  RH  076%=      5-min Rain = 0
KCH1 140613Z 15004KT 21/17 A3004 RMK A01 T02110168  RH  076%=      5-min Rain = 0
KCH1 140614Z 15004KT 21/17 A3004 RMK A01 T02100168  RH  077%=      5-min Rain = 0
KCH1 140615Z 15004KT 21/17 A3004 RMK A01 T02100168  RH  077%=      5-min Rain = 0
KCH1 140616Z 15004KT 21/17 A3004 RMK A01 T02100168  RH  077%=      5-min Rain = 0
KCH1 140617Z 14004KT 21/17 A3004 RMK A01 T02100168  RH  077%=      5-min Rain = 0
KCH1 140618Z 15004KT 21/17 A3004 RMK A01 T02100169  RH  077%=      5-min Rain = 0
KCH1 140619Z 15003KT 21/17 A3004 RMK A01 T02100169  RH  077%=      5-min Rain = 0
KCH1 140620Z 15004KT 21/17 A3004 RMK A01 T02100169  RH  077%=      5-min Rain = 0
KCH1 140621Z 15003KT 21/17 A3004 RMK A01 T02100169  RH  077%=      5-min Rain = 0
KCH1 140622Z 15004KT 21/17 A3004 RMK A01 T02100169  RH  077%=      5-min Rain = 0
KCH1 140623Z 15003KT 21/17 A3004 RMK A01 T02100169  RH  077%=      5-min Rain = 0
KCH1 140624Z 15003KT 21/17 A3004 RMK A01 T02100169  RH  077%=      5-min Rain = 0
KCH1 140625Z 15004KT 21/17 A3004 RMK A01 T02100169  RH  077%=      5-min Rain = 0
KCH1 140626Z 16003KT 21/17 A3004 RMK A01 T02100169  RH  077%=      5-min Rain = 0
KCH1 140627Z 15004KT 21/17 A3004 RMK A01 T02100169  RH  077%=      5-min Rain = 0
KCH1 140628Z 15003KT 21/17 A3004 RMK A01 T02100169  RH  078%=      5-min Rain = 0
KCH1 140629Z 15004KT 21/17 A3004 RMK A01 T02100170  RH  078%=      5-min Rain = 0
KCH1 140630Z 14003KT 21/17 A3003 RMK A01 T02100170  RH  078%=      5-min Rain = 0
KCH1 140631Z 16004KT 21/17 A3003 RMK A01 T02100170  RH  078%=      5-min Rain = 0
KCH1 140632Z 15003KT 21/17 A3003 RMK A01 T02100170  RH  078%=      5-min Rain = 0
KCH1 140633Z 15004KT 21/17 A3003 RMK A01 T02090170  RH  078%=      5-min Rain = 0
KCH1 140634Z 15004KT 21/17 A3003 RMK A01 T02100170  RH  078%=      5-min Rain = 0
KCH1 140635Z 14003KT 21/17 A3003 RMK A01 T02090170  RH  078%=      5-min Rain = 0
KCH1 140636Z 14004KT 21/17 A3003 RMK A01 T02100171  RH  078%=      5-min Rain = 0
KCH1 140637Z 14003KT 21/17 A3003 RMK A01 T02090171  RH  079%=      5-min Rain = 0
KCH1 140638Z 14003KT 21/17 A3003 RMK A01 T02090171  RH  079%=      5-min Rain = 0
KCH1 140639Z 14003KT 21/17 A3003 RMK A01 T02090171  RH  079%=      5-min Rain = 0
KCH1 140640Z 14002KT 21/17 A3003 RMK A01 T02090171  RH  079%=      5-min Rain = 0
KCH1 140641Z 14002KT 21/17 A3003 RMK A01 T02090171  RH  079%=      5-min Rain = 0
KCH1 140642Z 14003KT 21/17 A3003 RMK A01 T02090171  RH  079%=      5-min Rain = 0
KCH1 140643Z 14002KT 21/17 A3003 RMK A01 T02090171  RH  079%=      5-min Rain = 0
KCH1 140644Z 14002KT 21/17 A3003 RMK A01 T02090171  RH  079%=      5-min Rain = 0
KCH1 140645Z 15002KT 21/17 A3003 RMK A01 T02080171  RH  079%=      5-min Rain = 0
KCH1 140646Z 15002KT 21/17 A3003 RMK A01 T02090171  RH  079%=      5-min Rain = 0
KCH1 140647Z 16002KT 21/17 A3003 RMK A01 T02090171  RH  079%=      5-min Rain = 0
KCH1 140648Z 16003KT 21/17 A3003 RMK A01 T02090171  RH  079%=      5-min Rain = 0
KCH1 140649Z 16002KT 21/17 A3003 RMK A01 T02090172  RH  079%=      5-min Rain = 0
KCH1 140650Z 17003KT 21/17 A3003 RMK A01 T02080172  RH  080%=      5-min Rain = 0
KCH1 140651Z 17003KT 21/17 A3003 RMK A01 T02080172  RH  080%=      5-min Rain = 0
KCH1 140652Z 17003KT 21/17 A3003 RMK A01 T02080172  RH  080%=      5-min Rain = 0
KCH1 140653Z 18003KT 21/17 A3003 RMK A01 T02080172  RH  080%=      5-min Rain = 0
KCH1 140654Z 18003KT 21/17 A3003 RMK A01 T02080172  RH  080%=      5-min Rain = 0
KCH1 140655Z 18003KT 21/17 A3003 RMK A01 T02080172  RH  080%=      5-min Rain = 0
KCH1 140656Z 19002KT 21/17 A3003 RMK A01 T02080173  RH  080%=      5-min Rain = 0
KCH1 140657Z 19002KT 21/17 A3003 RMK A01 T02080172  RH  080%=      5-min Rain = 0
KCH1 140658Z 19002KT 21/17 A3003 RMK A01 T02080172  RH  080%=      5-min Rain = 0
KCH1 140659Z 19003KT 21/17 A3003 RMK A01 T02080172  RH  080%=      5-min Rain = 0
KCH1 140700Z 18002KT 21/17 A3003 RMK A01 T02080172  RH  080%=      5-min Rain = 0
KCH1 140701Z 19002KT 21/17 A3003 RMK A01 T02080172  RH  080%=      5-min Rain = 0
KCH1 140702Z 19002KT 21/17 A3003 RMK A01 T02090172  RH  080%=      5-min Rain = 0
KCH1 140703Z 19002KT 21/17 A3003 RMK A01 T02090172  RH  080%=      5-min Rain = 0
KCH1 140704Z 18002KT 21/17 A3003 RMK A01 T02090173  RH  080%=      5-min Rain = 0
KCH1 140705Z 18002KT 21/17 A3003 RMK A01 T02090172  RH  080%=      5-min Rain = 0
KCH1 140706Z 19001KT 21/17 A3003 RMK A01 T02090172  RH  080%=      5-min Rain = 0
KCH1 140707Z 19001KT 21/17 A3003 RMK A01 T02090172  RH  080%=      5-min Rain = 0
KCH1 140708Z 18001KT 21/17 A3003 RMK A01 T02090173  RH  080%=      5-min Rain = 0
KCH1 140709Z 18002KT 21/17 A3003 RMK A01 T02090173  RH  079%=      5-min Rain = 0
KCH1 140710Z 17002KT 21/17 A3003 RMK A01 T02090172  RH  079%=      5-min Rain = 0
KCH1 140711Z 17001KT 21/17 A3003 RMK A01 T02100173  RH  079%=      5-min Rain = 0
KCH1 140712Z 17002KT 21/17 A3003 RMK A01 T02100173  RH  079%=      5-min Rain = 0
KCH1 140713Z 17002KT 21/17 A3003 RMK A01 T02100173  RH  079%=      5-min Rain = 0
KCH1 140714Z 17002KT 21/17 A3004 RMK A01 T02100172  RH  079%=      5-min Rain = 0
KCH1 140715Z 17002KT 21/17 A3004 RMK A01 T02100173  RH  079%=      5-min Rain = 0
KCH1 140716Z 16002KT 21/17 A3004 RMK A01 T02110173  RH  079%=      5-min Rain = 0
KCH1 140717Z 16001KT 21/17 A3003 RMK A01 T02100173  RH  079%=      5-min Rain = 0
KCH1 140718Z 15002KT 21/17 A3003 RMK A01 T02110173  RH  079%=      5-min Rain = 0
KCH1 140719Z 15002KT 21/17 A3003 RMK A01 T02110173  RH  079%=      5-min Rain = 0
KCH1 140720Z 15002KT 21/17 A3003 RMK A01 T02100173  RH  079%=      5-min Rain = 0
KCH1 140721Z 16002KT 21/17 A3003 RMK A01 T02100173  RH  079%=      5-min Rain = 0
KCH1 140722Z 16002KT 21/17 A3003 RMK A01 T02100173  RH  079%=      5-min Rain = 0
KCH1 140723Z 16002KT 21/17 A3004 RMK A01 T02090173  RH  080%=      5-min Rain = 0
KCH1 140724Z 16002KT 21/17 A3004 RMK A01 T02080173  RH  080%=      5-min Rain = 0
KCH1 140725Z 16002KT 21/17 A3004 RMK A01 T02070173  RH  081%=      5-min Rain = 0
KCH1 140726Z 16002KT 21/17 A3004 RMK A01 T02070173  RH  081%=      5-min Rain = 0
KCH1 140727Z 17002KT 21/17 A3004 RMK A01 T02070173  RH  081%=      5-min Rain = 0
KCH1 140728Z 16002KT 21/17 A3003 RMK A01 T02070173  RH  081%=      5-min Rain = 0
KCH1 140729Z 17002KT 21/17 A3003 RMK A01 T02070173  RH  081%=      5-min Rain = 0
KCH1 140730Z 16003KT 21/17 A3003 RMK A01 T02070173  RH  081%=      5-min Rain = 0
KCH1 140731Z 16003KT 21/17 A3003 RMK A01 T02070173  RH  081%=      5-min Rain = 0
KCH1 140732Z 16003KT 21/17 A3003 RMK A01 T02070173  RH  081%=      5-min Rain = 0
KCH1 140733Z 16003KT 21/17 A3003 RMK A01 T02070173  RH  081%=      5-min Rain = 0
KCH1 140734Z 16003KT 21/17 A3003 RMK A01 T02070173  RH  081%=      5-min Rain = 0
KCH1 140735Z 16004KT 21/17 A3003 RMK A01 T02070173  RH  081%=      5-min Rain = 0
KCH1 140736Z 16005KT 21/17 A3003 RMK A01 T02070173  RH  081%=      5-min Rain = 0
KCH1 140737Z 16005KT 21/17 A3003 RMK A01 T02060174  RH  082%=      5-min Rain = 0
KCH1 140738Z 16005KT 21/17 A3002 RMK A01 T02060174  RH  082%=      5-min Rain = 0
KCH1 140739Z 16005KT 21/17 A3002 RMK A01 T02050174  RH  082%=      5-min Rain = 0
KCH1 140740Z 16005KT 20/17 A3002 RMK A01 T02040174  RH  083%=      5-min Rain = 0
KCH1 140741Z 16005KT 20/17 A3002 RMK A01 T02040174  RH  083%=      5-min Rain = 0
KCH1 140742Z 16005KT 20/17 A3002 RMK A01 T02040174  RH  083%=      5-min Rain = 0
KCH1 140743Z 16005KT 20/17 A3002 RMK A01 T02040174  RH  083%=      5-min Rain = 0
KCH1 140744Z 16005KT 20/17 A3002 RMK A01 T02040174  RH  083%=      5-min Rain = 0
KCH1 140745Z 16005KT 20/18 A3002 RMK A01 T02040175  RH  083%=      5-min Rain = 0
KCH1 140746Z 17005KT 20/18 A3002 RMK A01 T02040175  RH  083%=      5-min Rain = 0
KCH1 140747Z 17005KT 20/18 A3002 RMK A01 T02040175  RH  083%=      5-min Rain = 0
KCH1 140748Z 16005KT 20/18 A3002 RMK A01 T02030175  RH  084%=      5-min Rain = 0
KCH1 140749Z 16005KT 20/18 A3002 RMK A01 T02040175  RH  084%=      5-min Rain = 0
KCH1 140750Z 16005KT 20/18 A3002 RMK A01 T02040175  RH  084%=      5-min Rain = 0
KCH1 140751Z 16005KT 20/18 A3002 RMK A01 T02040175  RH  084%=      5-min Rain = 0
KCH1 140752Z 16005KT 20/18 A3002 RMK A01 T02040175  RH  084%=      5-min Rain = 0
KCH1 140753Z 16005KT 20/18 A3002 RMK A01 T02040175  RH  084%=      5-min Rain = 0
KCH1 140754Z 17005KT 20/18 A3002 RMK A01 T02040175  RH  084%=      5-min Rain = 0
KCH1 140755Z 16005KT 20/18 A3002 RMK A01 T02030175  RH  084%=      5-min Rain = 0
KCH1 140756Z 16005KT 20/18 A3002 RMK A01 T02030176  RH  084%=      5-min Rain = 0
KCH1 140757Z 16005KT 20/18 A3001 RMK A01 T02030176  RH  084%=      5-min Rain = 0
KCH1 140758Z 16005KT 20/18 A3001 RMK A01 T02020175  RH  084%=      5-min Rain = 0
KCH1 140759Z 16005KT 20/18 A3001 RMK A01 T02030176  RH  084%=      5-min Rain = 0
KCH1 140800Z 15005KT 20/18 A3001 RMK A01 T02030176  RH  084%=      5-min Rain = 0
KCH1 140801Z 16005KT 20/18 A3001 RMK A01 T02020176  RH  085%=      5-min Rain = 0
KCH1 140802Z 16006KT 20/18 A3001 RMK A01 T02020176  RH  085%=      5-min Rain = 0
KCH1 140803Z 16006KT 20/18 A3001 RMK A01 T02030175  RH  084%=      5-min Rain = 0
KCH1 140804Z 16005KT 20/18 A3001 RMK A01 T02030176  RH  084%=      5-min Rain = 0
KCH1 140805Z 17006KT 20/18 A3001 RMK A01 T02030176  RH  084%=      5-min Rain = 0
KCH1 140806Z 17006KT 20/18 A3001 RMK A01 T02040176  RH  084%=      5-min Rain = 0
KCH1 140807Z 16006KT 21/18 A3001 RMK A01 T02050176  RH  084%=      5-min Rain = 0
KCH1 140808Z 17005KT 21/18 A3001 RMK A01 T02050176  RH  084%=      5-min Rain = 0
KCH1 140809Z 16004KT 21/18 A3001 RMK A01 T02050176  RH  084%=      5-min Rain = 0
KCH1 140810Z 16004KT 21/18 A3001 RMK A01 T02050176  RH  084%=      5-min Rain = 0
KCH1 140811Z 16004KT 20/18 A3001 RMK A01 T02040176  RH  084%=      5-min Rain = 0
KCH1 140812Z 16004KT 20/18 A3001 RMK A01 T02030176  RH  084%=      5-min Rain = 0
KCH1 140813Z 15005KT 20/18 A3001 RMK A01 T02030176  RH  085%=      5-min Rain = 0
KCH1 140814Z 15005KT 20/18 A3001 RMK A01 T02020176  RH  085%=      5-min Rain = 0
KCH1 140815Z 16005KT 20/18 A3001 RMK A01 T02020176  RH  085%=      5-min Rain = 0
KCH1 140816Z 16005KT 20/18 A3001 RMK A01 T02020176  RH  085%=      5-min Rain = 0
KCH1 140817Z 16005KT 20/18 A3001 RMK A01 T02020176  RH  085%=      5-min Rain = 0
KCH1 140818Z 16005KT 20/18 A3001 RMK A01 T02020176  RH  085%=      5-min Rain = 0
KCH1 140819Z 16006KT 20/18 A3001 RMK A01 T02020176  RH  085%=      5-min Rain = 0
KCH1 140820Z 16006KT 20/18 A3001 RMK A01 T02010176  RH  085%=      5-min Rain = 0
KCH1 140821Z 16005KT 20/18 A3001 RMK A01 T02010176  RH  086%=      5-min Rain = 0
KCH1 140822Z 16005KT 20/18 A3001 RMK A01 T02010177  RH  086%=      5-min Rain = 0
KCH1 140823Z 15006KT 20/18 A3001 RMK A01 T02010177  RH  086%=      5-min Rain = 0
KCH1 140824Z 15005KT 20/18 A3001 RMK A01 T02010176  RH  086%=      5-min Rain = 0
KCH1 140825Z 16005KT 20/18 A3001 RMK A01 T02010177  RH  086%=      5-min Rain = 0
KCH1 140826Z 15005KT 20/18 A3001 RMK A01 T02010177  RH  086%=      5-min Rain = 0
KCH1 140827Z 15005KT 20/18 A3001 RMK A01 T02010177  RH  086%=      5-min Rain = 0
KCH1 140828Z 16005KT 20/18 A3001 RMK A01 T02010177  RH  086%=      5-min Rain = 0
KCH1 140829Z 16005KT 20/18 A3001 RMK A01 T02010176  RH  086%=      5-min Rain = 0
KCH1 140830Z 16005KT 20/18 A3001 RMK A01 T02010177  RH  086%=      5-min Rain = 0
KCH1 140831Z 16005KT 20/18 A3001 RMK A01 T02010177  RH  086%=      5-min Rain = 0
KCH1 140832Z 15005KT 20/18 A3001 RMK A01 T02010176  RH  086%=      5-min Rain = 0
KCH1 140833Z 16005KT 20/18 A3001 RMK A01 T02010176  RH  086%=      5-min Rain = 0
KCH1 140834Z 15005KT 20/18 A3001 RMK A01 T02020176  RH  085%=      5-min Rain = 0
KCH1 140835Z 16005KT 20/18 A3001 RMK A01 T02020176  RH  085%=      5-min Rain = 0
KCH1 140836Z 15004KT 20/18 A3001 RMK A01 T02020177  RH  085%=      5-min Rain = 0
KCH1 140837Z 15006KT 20/18 A3001 RMK A01 T02020177  RH  086%=      5-min Rain = 0
KCH1 140838Z 15005KT 20/18 A3001 RMK A01 T02020177  RH  085%=      5-min Rain = 0
KCH1 140839Z 15007KT 20/18 A3001 RMK A01 T02020177  RH  086%=      5-min Rain = 0
KCH1 140840Z 15007KT 20/18 A3001 RMK A01 T02020177  RH  086%=      5-min Rain = 0
KCH1 140841Z 15007KT 20/18 A3001 RMK A01 T02020177  RH  085%=      5-min Rain = 0
KCH1 140842Z 15006KT 20/18 A3001 RMK A01 T02020177  RH  085%=      5-min Rain = 0
KCH1 140843Z 15006KT 20/18 A3001 RMK A01 T02030177  RH  085%=      5-min Rain = 0
KCH1 140844Z 15006KT 20/18 A3001 RMK A01 T02020177  RH  085%=      5-min Rain = 0
KCH1 140845Z 14006KT 20/18 A3001 RMK A01 T02030177  RH  085%=      5-min Rain = 0
KCH1 140846Z 14007KT 20/18 A3001 RMK A01 T02030177  RH  085%=      5-min Rain = 0
KCH1 140847Z 15006KT 20/18 A3001 RMK A01 T02030177  RH  085%=      5-min Rain = 0
KCH1 140848Z 15006KT 20/18 A3001 RMK A01 T02030177  RH  085%=      5-min Rain = 0
KCH1 140849Z 14006KT 20/18 A3001 RMK A01 T02030177  RH  085%=      5-min Rain = 0
KCH1 140850Z 15006KT 20/18 A3001 RMK A01 T02030177  RH  085%=      5-min Rain = 0
KCH1 140851Z 15006KT 20/18 A3001 RMK A01 T02030177  RH  085%=      5-min Rain = 0
KCH1 140852Z 14007KT 20/18 A3001 RMK A01 T02030177  RH  085%=      5-min Rain = 0
KCH1 140853Z 14006KT 20/18 A3001 RMK A01 T02030177  RH  085%=      5-min Rain = 0
KCH1 140854Z 14006KT 20/18 A3001 RMK A01 T02030177  RH  085%=      5-min Rain = 0
KCH1 140855Z 14006KT 20/18 A3001 RMK A01 T02020177  RH  085%=      5-min Rain = 0
KCH1 140856Z 14005KT 20/18 A3001 RMK A01 T02020177  RH  086%=      5-min Rain = 0
KCH1 140857Z 14006KT 20/18 A3001 RMK A01 T02020177  RH  086%=      5-min Rain = 0
KCH1 140858Z 14006KT 20/18 A3001 RMK A01 T02020177  RH  086%=      5-min Rain = 0
KCH1 140859Z 14006KT 20/18 A3001 RMK A01 T02020177  RH  086%=      5-min Rain = 0
KCH1 140900Z 14005KT 20/18 A3001 RMK A01 T02020177  RH  085%=      5-min Rain = 0
KCH1 140901Z 14004KT 20/18 A3001 RMK A01 T02020176  RH  085%=      5-min Rain = 0
KCH1 140902Z 14004KT 20/18 A3002 RMK A01 T02020176  RH  085%=      5-min Rain = 0
KCH1 140903Z 15004KT 20/18 A3002 RMK A01 T02020177  RH  085%=      5-min Rain = 0
KCH1 140904Z 15004KT 20/18 A3002 RMK A01 T02020177  RH  086%=      5-min Rain = 0
KCH1 140905Z 16004KT 20/18 A3002 RMK A01 T02020177  RH  086%=      5-min Rain = 0
KCH1 140906Z 15003KT 20/18 A3002 RMK A01 T02020177  RH  086%=      5-min Rain = 0
KCH1 140907Z 15005KT 20/18 A3002 RMK A01 T02010177  RH  086%=      5-min Rain = 0
KCH1 140908Z 15005KT 20/18 A3002 RMK A01 T02010177  RH  086%=      5-min Rain = 0
KCH1 140909Z 16005KT 20/18 A3002 RMK A01 T02010176  RH  085%=      5-min Rain = 0
KCH1 140910Z 15005KT 20/18 A3002 RMK A01 T02020176  RH  085%=      5-min Rain = 0
KCH1 140911Z 15005KT 20/18 A3002 RMK A01 T02020176  RH  085%=      5-min Rain = 0
KCH1 140912Z 15006KT 20/18 A3002 RMK A01 T02020176  RH  085%=      5-min Rain = 0
KCH1 140913Z 16005KT 20/18 A3002 RMK A01 T02020177  RH  085%=      5-min Rain = 0
KCH1 140914Z 15005KT 20/18 A3002 RMK A01 T02020177  RH  086%=      5-min Rain = 0
KCH1 140915Z 15006KT 20/18 A3002 RMK A01 T02020177  RH  086%=      5-min Rain = 0
KCH1 140916Z 16006KT 20/18 A3002 RMK A01 T02020177  RH  086%=      5-min Rain = 0
KCH1 140917Z 16005KT 20/18 A3002 RMK A01 T02010177  RH  086%=      5-min Rain = 0
KCH1 140918Z 16006KT 20/18 A3002 RMK A01 T02010177  RH  086%=      5-min Rain = 0
KCH1 140919Z 15005KT 20/18 A3002 RMK A01 T02000176  RH  086%=      5-min Rain = 0
KCH1 140920Z 15006KT 20/18 A3002 RMK A01 T02010177  RH  086%=      5-min Rain = 0
KCH1 140921Z 15006KT 20/18 A3002 RMK A01 T02000177  RH  086%=      5-min Rain = 0
KCH1 140922Z 15006KT 20/18 A3002 RMK A01 T02000177  RH  087%=      5-min Rain = 0
KCH1 140923Z 15006KT 20/18 A3002 RMK A01 T01990177  RH  087%=      5-min Rain = 0
KCH1 140924Z 15005KT 20/18 A3002 RMK A01 T01990177  RH  087%=      5-min Rain = 0
KCH1 140925Z 15006KT 20/18 A3001 RMK A01 T01990177  RH  087%=      5-min Rain = 0
KCH1 140926Z 15005KT 20/18 A3001 RMK A01 T01990177  RH  087%=      5-min Rain = 0
KCH1 140927Z 15005KT 20/18 A3001 RMK A01 T01990177  RH  087%=      5-min Rain = 0
KCH1 140928Z 15006KT 20/18 A3001 RMK A01 T01990177  RH  087%=      5-min Rain = 0
KCH1 140929Z 15006KT 20/18 A3001 RMK A01 T01980177  RH  087%=      5-min Rain = 0
KCH1 140930Z 15006KT 20/18 A3001 RMK A01 T01980177  RH  087%=      5-min Rain = 0
KCH1 140931Z 14006KT 20/18 A3001 RMK A01 T01980177  RH  088%=      5-min Rain = 0
KCH1 140932Z 15005KT 20/18 A3001 RMK A01 T01980177  RH  087%=      5-min Rain = 0
KCH1 140933Z 16004KT 20/18 A3001 RMK A01 T01980177  RH  088%=      5-min Rain = 0
KCH1 140934Z 16005KT 20/18 A3001 RMK A01 T01980177  RH  088%=      5-min Rain = 0
KCH1 140935Z 16005KT 20/18 A3002 RMK A01 T01980176  RH  088%=      5-min Rain = 0
KCH1 140936Z 16005KT 20/18 A3002 RMK A01 T01980176  RH  087%=      5-min Rain = 0
KCH1 140937Z 16005KT 20/18 A3002 RMK A01 T01990177  RH  087%=      5-min Rain = 0
KCH1 140938Z 16005KT 20/18 A3002 RMK A01 T01990177  RH  087%=      5-min Rain = 0
KCH1 140939Z 17003KT 20/18 A3002 RMK A01 T01980176  RH  087%=      5-min Rain = 0
KCH1 140940Z 17004KT 20/18 A3002 RMK A01 T01990177  RH  087%=      5-min Rain = 0
KCH1 140941Z 16004KT 20/18 A3002 RMK A01 T01980177  RH  087%=      5-min Rain = 0
KCH1 140942Z 16003KT 20/18 A3002 RMK A01 T01980177  RH  087%=      5-min Rain = 0
KCH1 140943Z 16003KT 20/18 A3002 RMK A01 T01980177  RH  088%=      5-min Rain = 0
KCH1 140944Z 16004KT 20/18 A3002 RMK A01 T01980177  RH  088%=      5-min Rain = 0
KCH1 140945Z 16004KT 20/18 A3002 RMK A01 T01980177  RH  088%=      5-min Rain = 0
KCH1 140946Z 15004KT 20/18 A3002 RMK A01 T01970177  RH  088%=      5-min Rain = 0
KCH1 140947Z 14004KT 20/18 A3002 RMK A01 T01970177  RH  088%=      5-min Rain = 0
KCH1 140948Z 14005KT 20/18 A3002 RMK A01 T01970177  RH  088%=      5-min Rain = 0
KCH1 140949Z 14005KT 20/18 A3001 RMK A01 T01970177  RH  088%=      5-min Rain = 0
KCH1 140950Z 14005KT 20/18 A3001 RMK A01 T01970177  RH  088%=      5-min Rain = 0
KCH1 140951Z 14006KT 20/18 A3001 RMK A01 T01960177  RH  089%=      5-min Rain = 0
KCH1 140952Z 14005KT 20/18 A3001 RMK A01 T01960177  RH  089%=      5-min Rain = 0
KCH1 140953Z 14005KT 20/18 A3001 RMK A01 T01960177  RH  089%=      5-min Rain = 0
KCH1 140954Z 14005KT 20/18 A3001 RMK A01 T01960177  RH  089%=      5-min Rain = 0
KCH1 140955Z 14005KT 20/18 A3001 RMK A01 T01960178  RH  089%=      5-min Rain = 0
KCH1 140956Z 14005KT 20/18 A3001 RMK A01 T01960178  RH  089%=      5-min Rain = 0
KCH1 140957Z 14005KT 20/18 A3001 RMK A01 T01970178  RH  089%=      5-min Rain = 0
KCH1 140958Z 14004KT 20/18 A3001 RMK A01 T01960177  RH  089%=      5-min Rain = 0
KCH1 140959Z 15004KT 20/18 A3001 RMK A01 T01960177  RH  089%=      5-min Rain = 0
KCH1 141000Z 14004KT 20/18 A3002 RMK A01 T01960177  RH  089%=      5-min Rain = 0
KCH1 141001Z 15003KT 20/18 A3002 RMK A01 T01970177  RH  089%=      5-min Rain = 0
KCH1 141002Z 14004KT 20/18 A3001 RMK A01 T01970177  RH  088%=      5-min Rain = 0
KCH1 141003Z 14004KT 20/18 A3001 RMK A01 T01970177  RH  088%=      5-min Rain = 0
KCH1 141004Z 15004KT 20/18 A3001 RMK A01 T01970177  RH  088%=      5-min Rain = 0
KCH1 141005Z 14004KT 20/18 A3001 RMK A01 T01970177  RH  088%=      5-min Rain = 0
KCH1 141006Z 14004KT 20/18 A3001 RMK A01 T01970178  RH  089%=      5-min Rain = 0
KCH1 141007Z 14006KT 20/18 A3001 RMK A01 T01970178  RH  089%=      5-min Rain = 0
KCH1 141008Z 15005KT 20/18 A3001 RMK A01 T01970178  RH  089%=      5-min Rain = 0
KCH1 141009Z 14005KT 20/18 A3001 RMK A01 T01970178  RH  089%=      5-min Rain = 0
KCH1 141010Z 14005KT 20/18 A3001 RMK A01 T01970178  RH  089%=      5-min Rain = 0
KCH1 141011Z 14005KT 20/18 A3001 RMK A01 T01970178  RH  089%=      5-min Rain = 0
KCH1 141012Z 14005KT 20/18 A3001 RMK A01 T01960178  RH  089%=      5-min Rain = 0
KCH1 141013Z 15004KT 20/18 A3001 RMK A01 T01960178  RH  089%=      5-min Rain = 0
KCH1 141014Z 14005KT 20/18 A3001 RMK A01 T01960178  RH  089%=      5-min Rain = 0
KCH1 141015Z 14005KT 20/18 A3001 RMK A01 T01960178  RH  089%=      5-min Rain = 0
KCH1 141016Z 14004KT 20/18 A3001 RMK A01 T01960178  RH  089%=      5-min Rain = 0
KCH1 141017Z 14005KT 20/18 A3001 RMK A01 T01950178  RH  089%=      5-min Rain = 0
KCH1 141018Z 14004KT 20/18 A3001 RMK A01 T01950178  RH  089%=      5-min Rain = 0
KCH1 141019Z 13005KT 20/18 A3001 RMK A01 T01950178  RH  090%=      5-min Rain = 0
KCH1 141020Z 13005KT 20/18 A3001 RMK A01 T01950178  RH  090%=      5-min Rain = 0
KCH1 141021Z 14005KT 20/18 A3001 RMK A01 T01950178  RH  090%=      5-min Rain = 0
KCH1 141022Z 14004KT 20/18 A3001 RMK A01 T01950178  RH  089%=      5-min Rain = 0
KCH1 141023Z 14004KT 20/18 A3001 RMK A01 T01950178  RH  090%=      5-min Rain = 0
KCH1 141024Z 14004KT 20/18 A3001 RMK A01 T01960178  RH  090%=      5-min Rain = 0
KCH1 141025Z 14004KT 20/18 A3001 RMK A01 T01950178  RH  090%=      5-min Rain = 0
KCH1 141026Z 14005KT 20/18 A3001 RMK A01 T01960178  RH  090%=      5-min Rain = 0
KCH1 141027Z 14004KT 20/18 A30 RMK A01 T01950178  RH  090%=      5-min Rain = 0
KCH1 141028Z 14004KT 20/18 A30 RMK A01 T01950178  RH  090%=      5-min Rain = 0
KCH1 141029Z 14004KT 20/18 A30 RMK A01 T01950178  RH  090%=      5-min Rain = 0
KCH1 141030Z 14004KT 20/18 A30 RMK A01 T01960178  RH  090%=      5-min Rain = 0
KCH1 141031Z 13004KT 20/18 A30 RMK A01 T01960178  RH  089%=      5-min Rain = 0
KCH1 141032Z 13003KT 20/18 A30 RMK A01 T01960178  RH  089%=      5-min Rain = 0
KCH1 141033Z 13004KT 20/18 A30 RMK A01 T01950178  RH  089%=      5-min Rain = 0
KCH1 141034Z 14005KT 20/18 A30 RMK A01 T01960178  RH  090%=      5-min Rain = 0
KCH1 141035Z 13005KT 20/18 A30 RMK A01 T01950178  RH  089%=      5-min Rain = 0
KCH1 141036Z 13005KT 20/18 A30 RMK A01 T01950177  RH  089%=      5-min Rain = 0
KCH1 141037Z 13005KT 20/18 A30 RMK A01 T01950177  RH  089%=      5-min Rain = 0
KCH1 141038Z 13004KT 20/18 A30 RMK A01 T01960178  RH  089%=      5-min Rain = 0
KCH1 141039Z 14004KT 20/18 A30 RMK A01 T01960178  RH  089%=      5-min Rain = 0
KCH1 141040Z 13004KT 20/18 A30 RMK A01 T01960178  RH  090%=      5-min Rain = 0
KCH1 141041Z 13005KT 20/18 A30 RMK A01 T01950178  RH  090%=      5-min Rain = 0
KCH1 141042Z 13005KT 20/18 A30 RMK A01 T01960178  RH  090%=      5-min Rain = 0
KCH1 141043Z 13004KT 20/18 A30 RMK A01 T01960178  RH  090%=      5-min Rain = 0
KCH1 141044Z 14004KT 20/18 A30 RMK A01 T01950178  RH  090%=      5-min Rain = 0
KCH1 141045Z 14005KT 20/18 A30 RMK A01 T01950178  RH  089%=      5-min Rain = 0
KCH1 141046Z 14004KT 20/18 A30 RMK A01 T01950178  RH  090%=      5-min Rain = 0
KCH1 141047Z 14005KT 20/18 A30 RMK A01 T01950178  RH  090%=      5-min Rain = 0
KCH1 141048Z 14004KT 20/18 A30 RMK A01 T01960178  RH  090%=      5-min Rain = 0
KCH1 141049Z 14005KT 20/18 A30 RMK A01 T01960178  RH  090%=      5-min Rain = 0
KCH1 141050Z 14004KT 20/18 A30 RMK A01 T01950178  RH  090%=      5-min Rain = 0
KCH1 141051Z 14005KT 20/18 A30 RMK A01 T01950178  RH  090%=      5-min Rain = 0
KCH1 141052Z 15005KT 20/18 A30 RMK A01 T01950178  RH  090%=      5-min Rain = 0
KCH1 141053Z 14004KT 20/18 A30 RMK A01 T01960178  RH  090%=      5-min Rain = 0
KCH1 141054Z 14004KT 20/18 A30 RMK A01 T01950178  RH  090%=      5-min Rain = 0
KCH1 141055Z 15004KT 20/18 A30 RMK A01 T01950178  RH  090%=      5-min Rain = 0
KCH1 141056Z 14003KT 20/18 A30 RMK A01 T01950178  RH  090%=      5-min Rain = 0
KCH1 141057Z 14004KT 20/18 A30 RMK A01 T01950178  RH  090%=      5-min Rain = 0
KCH1 141058Z 14004KT 20/18 A30 RMK A01 T01950178  RH  090%=      5-min Rain = 0
KCH1 141059Z 14004KT 20/18 A30 RMK A01 T01950178  RH  090%=      5-min Rain = 0
KCH1 141100Z 14004KT 20/18 A30 RMK A01 T01950178  RH  090%=      5-min Rain = 0
KCH1 141101Z 14004KT 19/18 A30 RMK A01 T01940178  RH  090%=      5-min Rain = 0
KCH1 141102Z 13004KT 20/18 A30 RMK A01 T01950178  RH  090%=      5-min Rain = 0
KCH1 141103Z 13003KT 19/18 A30 RMK A01 T01940178  RH  090%=      5-min Rain = 0
KCH1 141104Z 14004KT 19/18 A30 RMK A01 T01940178  RH  091%=      5-min Rain = 0
KCH1 141105Z 14004KT 19/18 A30 RMK A01 T01940178  RH  091%=      5-min Rain = 0
KCH1 141106Z 13004KT 19/18 A30 RMK A01 T01940178  RH  091%=      5-min Rain = 0
KCH1 141107Z 13004KT 19/18 A30 RMK A01 T01940178  RH  090%=      5-min Rain = 0
KCH1 141108Z 14003KT 19/18 A30 RMK A01 T01940178  RH  090%=      5-min Rain = 0
KCH1 141109Z 14003KT 19/18 A30 RMK A01 T01940178  RH  090%=      5-min Rain = 0
KCH1 141110Z 13003KT 19/18 A30 RMK A01 T01940178  RH  090%=      5-min Rain = 0
KCH1 141111Z 12003KT 19/18 A30 RMK A01 T01940178  RH  090%=      5-min Rain = 0
KCH1 141112Z 12003KT 19/18 A30 RMK A01 T01940178  RH  090%=      5-min Rain = 0
KCH1 141113Z 12003KT 19/18 A30 RMK A01 T01940178  RH  090%=      5-min Rain = 0
KCH1 141114Z 12002KT 19/18 A3001 RMK A01 T01940177  RH  090%=      5-min Rain = 0
KCH1 141115Z 10003KT 19/18 A3001 RMK A01 T01940178  RH  090%=      5-min Rain = 0
KCH1 141116Z 10002KT 20/18 A3001 RMK A01 T01950178  RH  090%=      5-min Rain = 0
KCH1 141117Z 11002KT 20/18 A3001 RMK A01 T01950178  RH  090%=      5-min Rain = 0
KCH1 141118Z 11002KT 20/18 A3001 RMK A01 T01950178  RH  090%=      5-min Rain = 0
KCH1 141119Z 11002KT 20/18 A3001 RMK A01 T01960178  RH  089%=      5-min Rain = 0
KCH1 141120Z 13001KT 20/18 A3002 RMK A01 T01960178  RH  089%=      5-min Rain = 0
KCH1 141121Z 13001KT 20/18 A3002 RMK A01 T01960178  RH  089%=      5-min Rain = 0
KCH1 141122Z 13002KT 20/18 A3002 RMK A01 T01960178  RH  089%=      5-min Rain = 0
KCH1 141123Z 12002KT 20/18 A3002 RMK A01 T01960177  RH  089%=      5-min Rain = 0
KCH1 141124Z 12002KT 20/18 A3002 RMK A01 T01960178  RH  089%=      5-min Rain = 0
KCH1 141125Z 13003KT 20/18 A3002 RMK A01 T01970178  RH  089%=      5-min Rain = 0
KCH1 141126Z 12004KT 20/18 A3002 RMK A01 T01970178  RH  089%=      5-min Rain = 0
KCH1 141127Z 12004KT 20/18 A3002 RMK A01 T01960178  RH  089%=      5-min Rain = 0
KCH1 141128Z 13004KT 20/18 A3001 RMK A01 T01960177  RH  089%=      5-min Rain = 0
KCH1 141129Z 12004KT 20/18 A3001 RMK A01 T01950178  RH  090%=      5-min Rain = 0
KCH1 141130Z 13004KT 19/18 A3001 RMK A01 T01940177  RH  090%=      5-min Rain = 0
KCH1 141131Z 13005KT 19/18 A3001 RMK A01 T01940178  RH  090%=      5-min Rain = 0
KCH1 141132Z 13005KT 19/18 A3001 RMK A01 T01930178  RH  091%=      5-min Rain = 0
KCH1 141133Z 13005KT 19/18 A3001 RMK A01 T01930177  RH  091%=      5-min Rain = 0
KCH1 141134Z 13006KT 19/18 A3001 RMK A01 T01930178  RH  091%=      5-min Rain = 0
KCH1 141135Z 13006KT 19/18 A3001 RMK A01 T01930178  RH  091%=      5-min Rain = 0
KCH1 141136Z 13006KT 19/18 A3001 RMK A01 T01930178  RH  091%=      5-min Rain = 0
KCH1 141137Z 13005KT 19/18 A3001 RMK A01 T01930178  RH  091%=      5-min Rain = 0
KCH1 141138Z 13005KT 19/18 A3002 RMK A01 T01940178  RH  091%=      5-min Rain = 0
KCH1 141139Z 13005KT 19/18 A3002 RMK A01 T01930178  RH  091%=      5-min Rain = 0
KCH1 141140Z 13005KT 19/18 A3002 RMK A01 T01930178  RH  091%=      5-min Rain = 0
KCH1 141141Z 13005KT 19/18 A3002 RMK A01 T01940178  RH  091%=      5-min Rain = 0
KCH1 141142Z 13006KT 19/18 A3001 RMK A01 T01940179  RH  091%=      5-min Rain = 0
KCH1 141143Z 14006KT 19/18 A3001 RMK A01 T01930178  RH  091%=      5-min Rain = 0
KCH1 141144Z 14006KT 19/18 A3001 RMK A01 T01930178  RH  091%=      5-min Rain = 0
KCH1 141145Z 14006KT 19/18 A3001 RMK A01 T01930178  RH  091%=      5-min Rain = 0
KCH1 141146Z 14006KT 19/18 A3001 RMK A01 T01930178  RH  091%=      5-min Rain = 0
KCH1 141147Z 14007KT 19/18 A3001 RMK A01 T01930178  RH  091%=      5-min Rain = 0
KCH1 141148Z 14006KT 19/18 A3001 RMK A01 T01930179  RH  091%=      5-min Rain = 0
KCH1 141149Z 14006KT 19/18 A3001 RMK A01 T01930178  RH  091%=      5-min Rain = 0
KCH1 141150Z 14006KT 19/18 A3001 RMK A01 T01930179  RH  091%=      5-min Rain = 0
KCH1 141151Z 14007KT 19/18 A3001 RMK A01 T01930179  RH  091%=      5-min Rain = 0
KCH1 141152Z 14007KT 19/18 A3001 RMK A01 T01940179  RH  091%=      5-min Rain = 0
KCH1 141153Z 14006KT 19/18 A3001 RMK A01 T01940179  RH  091%=      5-min Rain = 0
KCH1 141154Z 14007KT 19/18 A3001 RMK A01 T01940179  RH  091%=      5-min Rain = 0
KCH1 141155Z 14007KT 19/18 A3001 RMK A01 T01940179  RH  091%=      5-min Rain = 0
KCH1 141156Z 14007KT 19/18 A3001 RMK A01 T01940179  RH  091%=      5-min Rain = 0
KCH1 141157Z 14007KT 19/18 A3001 RMK A01 T01940179  RH  091%=      5-min Rain = 0
KCH1 141158Z 14007KT 19/18 A3001 RMK A01 T01940179  RH  091%=      5-min Rain = 0
KCH1 141159Z 14008KT 20/18 A3001 RMK A01 T01950179  RH  091%=      5-min Rain = 0
KCH1 141200Z 14007KT 20/18 A3001 RMK A01 T01950180  RH  091%=      5-min Rain = 0
KCH1 141201Z 14006KT 20/18 A3001 RMK A01 T01960180  RH  091%=      5-min Rain = 0
KCH1 141202Z 14005KT 20/18 A3001 RMK A01 T01960180  RH  090%=      5-min Rain = 0
KCH1 141203Z 15005KT 20/18 A3001 RMK A01 T01960180  RH  090%=      5-min Rain = 0
KCH1 141204Z 14005KT 20/18 A3001 RMK A01 T01960180  RH  090%=      5-min Rain = 0
KCH1 141205Z 13005KT 20/18 A3001 RMK A01 T01960180  RH  091%=      5-min Rain = 0
KCH1 141206Z 13006KT 20/18 A3001 RMK A01 T01960180  RH  090%=      5-min Rain = 0
KCH1 141207Z 14005KT 20/18 A3001 RMK A01 T01960180  RH  090%=      5-min Rain = 0
KCH1 141208Z 13006KT 20/18 A3001 RMK A01 T01970181  RH  090%=      5-min Rain = 0
KCH1 141209Z 13005KT 20/18 A3001 RMK A01 T01970181  RH  090%=      5-min Rain = 0
KCH1 141210Z 13007KT 20/18 A3001 RMK A01 T01970181  RH  090%=      5-min Rain = 0
KCH1 141211Z 13007KT 20/18 A3001 RMK A01 T01980181  RH  090%=      5-min Rain = 0
KCH1 141212Z 13006KT 20/18 A3001 RMK A01 T01980181  RH  090%=      5-min Rain = 0
KCH1 141213Z 13004KT 20/18 A3001 RMK A01 T01980181  RH  090%=      5-min Rain = 0
KCH1 141214Z 13004KT 20/18 A3002 RMK A01 T01980181  RH  090%=      5-min Rain = 0
KCH1 141215Z 12004KT 20/18 A3002 RMK A01 T01980181  RH  090%=      5-min Rain = 0
KCH1 141216Z 11006KT 20/18 A3002 RMK A01 T01990182  RH  090%=      5-min Rain = 0
KCH1 141217Z 11005KT 20/18 A3001 RMK A01 T01990182  RH  090%=      5-min Rain = 0
KCH1 141218Z 11005KT 20/18 A3002 RMK A01 T01990182  RH  090%=      5-min Rain = 0
KCH1 141219Z 12005KT 20/18 A3002 RMK A01 T01990182  RH  090%=      5-min Rain = 0
KCH1 141220Z 12005KT 20/18 A3002 RMK A01 T01990182  RH  090%=      5-min Rain = 0
KCH1 141221Z 12005KT 20/18 A3002 RMK A01 T02000182  RH  090%=      5-min Rain = 0
KCH1 141222Z 11005KT 20/18 A3002 RMK A01 T02000183  RH  090%=      5-min Rain = 0
KCH1 141223Z 11005KT 20/18 A3001 RMK A01 T02000183  RH  090%=      5-min Rain = 0
KCH1 141224Z 11005KT 20/18 A3001 RMK A01 T02000182  RH  090%=      5-min Rain = 0
KCH1 141225Z 11005KT 20/18 A3002 RMK A01 T01990182  RH  090%=      5-min Rain = 0
KCH1 141226Z 12005KT 20/18 A3002 RMK A01 T02000183  RH  090%=      5-min Rain = 0
KCH1 141227Z 12004KT 20/18 A3002 RMK A01 T02000183  RH  090%=      5-min Rain = 0
KCH1 141228Z 11004KT 20/18 A3002 RMK A01 T02000183  RH  090%=      5-min Rain = 0
KCH1 141229Z 12004KT 20/18 A3002 RMK A01 T02000183  RH  090%=      5-min Rain = 0
KCH1 141230Z 12005KT 20/18 A3002 RMK A01 T02000183  RH  090%=      5-min Rain = 0
KCH1 141231Z 12006KT 20/18 A3001 RMK A01 T02010183  RH  090%=      5-min Rain = 0
KCH1 141232Z 12006KT 20/18 A3001 RMK A01 T02010183  RH  090%=      5-min Rain = 0
KCH1 141233Z 14006KT 20/18 A3001 RMK A01 T02010183  RH  090%=      5-min Rain = 0
KCH1 141234Z 13006KT 20/18 A3001 RMK A01 T02010183  RH  089%=      5-min Rain = 0
KCH1 141235Z 13006KT 20/18 A3001 RMK A01 T02010183  RH  089%=      5-min Rain = 0
KCH1 141236Z 13007KT 20/18 A3001 RMK A01 T02020183  RH  089%=      5-min Rain = 0
KCH1 141237Z 15006KT 20/18 A3001 RMK A01 T02020184  RH  089%=      5-min Rain = 0
KCH1 141238Z 14005KT 20/18 A3001 RMK A01 T02020184  RH  089%=      5-min Rain = 0
KCH1 141239Z 13006KT 20/18 A3001 RMK A01 T02020184  RH  089%=      5-min Rain = 0
KCH1 141240Z 14006KT 20/18 A3001 RMK A01 T02020184  RH  089%=      5-min Rain = 0
KCH1 141241Z 14008KT 20/18 A3001 RMK A01 T02020184  RH  089%=      5-min Rain = 0
KCH1 141242Z 14007KT 20/18 A3001 RMK A01 T02030184  RH  089%=      5-min Rain = 0
KCH1 141243Z 14006KT 20/18 A3001 RMK A01 T02030184  RH  089%=      5-min Rain = 0
KCH1 141244Z 14006KT 20/18 A3002 RMK A01 T02030184  RH  089%=      5-min Rain = 0
KCH1 141245Z 14005KT 20/18 A3002 RMK A01 T02030184  RH  089%=      5-min Rain = 0
KCH1 141246Z 13005KT 20/18 A3002 RMK A01 T02030184  RH  089%=      5-min Rain = 0
KCH1 141247Z 13004KT 20/18 A3002 RMK A01 T02030184  RH  089%=      5-min Rain = 0
KCH1 141248Z 13004KT 20/19 A3002 RMK A01 T02030185  RH  089%=      5-min Rain = 0
KCH1 141249Z 13003KT 20/18 A3002 RMK A01 T02030184  RH  089%=      5-min Rain = 0
KCH1 141250Z 11002KT 20/19 A3002 RMK A01 T02040185  RH  089%=      5-min Rain = 0
KCH1 141251Z 11002KT 20/19 A3002 RMK A01 T02040185  RH  089%=      5-min Rain = 0
KCH1 141252Z 13003KT 21/19 A3002 RMK A01 T02050185  RH  089%=      5-min Rain = 0
KCH1 141253Z 13004KT 21/19 A3002 RMK A01 T02050185  RH  088%=      5-min Rain = 0
KCH1 141254Z 11003KT 21/19 A3002 RMK A01 T02050185  RH  088%=      5-min Rain = 0
KCH1 141255Z 10002KT 21/19 A3002 RMK A01 T02060186  RH  089%=      5-min Rain = 0
KCH1 141256Z 11002KT 21/19 A3002 RMK A01 T02050186  RH  089%=      5-min Rain = 0
KCH1 141257Z 11003KT 21/19 A3002 RMK A01 T02050187  RH  089%=      5-min Rain = 0
KCH1 141258Z 12002KT 21/19 A3002 RMK A01 T02050187  RH  089%=      5-min Rain = 0
KCH1 141259Z 12004KT 21/19 A3002 RMK A01 T02060187  RH  089%=      5-min Rain = 0
KCH1 141300Z 12004KT 21/19 A3002 RMK A01 T02060187  RH  089%=      5-min Rain = 0
KCH1 141301Z 12003KT 21/19 A3002 RMK A01 T02060188  RH  089%=      5-min Rain = 0
KCH1 141302Z 12003KT 21/19 A3002 RMK A01 T02060188  RH  089%=      5-min Rain = 0
KCH1 141303Z 12005KT 21/19 A3002 RMK A01 T02070188  RH  089%=      5-min Rain = 0
KCH1 141304Z 12004KT 21/19 A3002 RMK A01 T02070188  RH  089%=      5-min Rain = 0
KCH1 141305Z 13004KT 21/19 A3002 RMK A01 T02080188  RH  088%=      5-min Rain = 0
KCH1 141306Z 12004KT 21/19 A3002 RMK A01 T02090188  RH  088%=      5-min Rain = 0
KCH1 141307Z 12005KT 21/19 A3002 RMK A01 T02100188  RH  087%=      5-min Rain = 0
KCH1 141308Z 13005KT 21/19 A3002 RMK A01 T02100187  RH  087%=      5-min Rain = 0
KCH1 141309Z 13005KT 21/19 A3002 RMK A01 T02100188  RH  087%=      5-min Rain = 0
KCH1 141310Z 14005KT 21/19 A3002 RMK A01 T02100188  RH  087%=      5-min Rain = 0
KCH1 141311Z 13004KT 21/19 A3002 RMK A01 T02100189  RH  087%=      5-min Rain = 0
KCH1 141312Z 13006KT 21/19 A3002 RMK A01 T02110189  RH  087%=      5-min Rain = 0
KCH1 141313Z 13005KT 21/19 A3002 RMK A01 T02110188  RH  087%=      5-min Rain = 0
KCH1 141314Z 14005KT 21/19 A3002 RMK A01 T02110189  RH  087%=      5-min Rain = 0
KCH1 141315Z 14006KT 21/19 A3002 RMK A01 T02120189  RH  087%=      5-min Rain = 0
KCH1 141316Z 14007KT 21/19 A3002 RMK A01 T02120189  RH  086%=      5-min Rain = 0
KCH1 141317Z 14007KT 21/19 A3002 RMK A01 T02120188  RH  086%=      5-min Rain = 0
KCH1 141318Z 14006KT 21/19 A3002 RMK A01 T02130188  RH  086%=      5-min Rain = 0
KCH1 141319Z 14006KT 21/19 A3002 RMK A01 T02130188  RH  086%=      5-min Rain = 0
KCH1 141320Z 14005KT 21/19 A3002 RMK A01 T02130189  RH  086%=      5-min Rain = 0
KCH1 141321Z 14004KT 21/19 A3002 RMK A01 T02130189  RH  086%=      5-min Rain = 0
KCH1 141322Z 14005KT 21/19 A3002 RMK A01 T02140189  RH  086%=      5-min Rain = 0
KCH1 141323Z 13006KT 21/19 A3002 RMK A01 T02140188  RH  085%=      5-min Rain = 0
KCH1 141324Z 13006KT 21/19 A3002 RMK A01 T02140188  RH  085%=      5-min Rain = 0
KCH1 141325Z 13005KT 21/19 A3002 RMK A01 T02140188  RH  085%=      5-min Rain = 0
KCH1 141326Z 13005KT 22/19 A3002 RMK A01 T02150189  RH  085%=      5-min Rain = 0
KCH1 141327Z 13005KT 22/19 A3002 RMK A01 T02150188  RH  085%=      5-min Rain = 0
KCH1 141328Z 13005KT 22/19 A3002 RMK A01 T02150189  RH  085%=      5-min Rain = 0
KCH1 141329Z 13005KT 22/19 A3002 RMK A01 T02150189  RH  085%=      5-min Rain = 0
KCH1 141330Z 13005KT 22/19 A3002 RMK A01 T02160188  RH  084%=      5-min Rain = 0
KCH1 141331Z 14007KT 22/19 A3002 RMK A01 T02160188  RH  085%=      5-min Rain = 0
KCH1 141332Z 13006KT 22/19 A3002 RMK A01 T02160189  RH  084%=      5-min Rain = 0
KCH1 141333Z 13007KT 22/19 A3002 RMK A01 T02160188  RH  084%=      5-min Rain = 0
KCH1 141334Z 14005KT 22/19 A3002 RMK A01 T02160189  RH  085%=      5-min Rain = 0
KCH1 141335Z 13006KT 22/19 A3002 RMK A01 T02160189  RH  085%=      5-min Rain = 0
KCH1 141336Z 13006KT 22/19 A3002 RMK A01 T02170189  RH  084%=      5-min Rain = 0
KCH1 141337Z 13006KT 22/19 A3002 RMK A01 T02170189  RH  084%=      5-min Rain = 0
KCH1 141338Z 13005KT 22/19 A3002 RMK A01 T02170190  RH  084%=      5-min Rain = 0
KCH1 141339Z 13006KT 22/19 A3002 RMK A01 T02180190  RH  084%=      5-min Rain = 0
KCH1 141340Z 14007KT 22/19 A3002 RMK A01 T02180189  RH  084%=      5-min Rain = 0
KCH1 141341Z 14007KT 22/19 A3002 RMK A01 T02180189  RH  083%=      5-min Rain = 0
KCH1 141342Z 14007KT 22/19 A3002 RMK A01 T02190189  RH  083%=      5-min Rain = 0
KCH1 141343Z 13006KT 22/19 A3002 RMK A01 T02190189  RH  083%=      5-min Rain = 0
KCH1 141344Z 13007KT 22/19 A3002 RMK A01 T02190190  RH  083%=      5-min Rain = 0
KCH1 141345Z 14007KT 22/19 A3002 RMK A01 T02190189  RH  083%=      5-min Rain = 0
KCH1 141346Z 14006KT 22/19 A3002 RMK A01 T02200190  RH  083%=      5-min Rain = 0
KCH1 141347Z 14007KT 22/19 A3002 RMK A01 T02210190  RH  083%=      5-min Rain = 0
KCH1 141348Z 14008KT 22/19 A3002 RMK A01 T02210189  RH  082%=      5-min Rain = 0
KCH1 141349Z 14008KT 22/19 A3002 RMK A01 T02210188  RH  081%=      5-min Rain = 0
KCH1 141350Z 14007KT 22/19 A3002 RMK A01 T02210189  RH  082%=      5-min Rain = 0
KCH1 141351Z 15005KT 22/19 A3002 RMK A01 T02220190  RH  082%=      5-min Rain = 0
KCH1 141352Z 16005KT 22/19 A3002 RMK A01 T02220190  RH  082%=      5-min Rain = 0
KCH1 141353Z 15007KT 22/19 A3002 RMK A01 T02230190  RH  082%=      5-min Rain = 0
KCH1 141354Z 16006KT 22/19 A3002 RMK A01 T02230189  RH  081%=      5-min Rain = 0
KCH1 141355Z 16007KT 22/19 A3002 RMK A01 T02240190  RH  081%=      5-min Rain = 0
KCH1 141356Z 16006KT 22/19 A3002 RMK A01 T02240190  RH  081%=      5-min Rain = 0
KCH1 141357Z 15008KT 22/19 A3001 RMK A01 T02240190  RH  081%=      5-min Rain = 0
KCH1 141358Z 16007KT 23/19 A3001 RMK A01 T02250189  RH  080%=      5-min Rain = 0
KCH1 141359Z 16008KT 23/19 A3001 RMK A01 T02250190  RH  080%=      5-min Rain = 0
KCH1 141400Z 17010KT 23/19 A3001 RMK A01 T02260188  RH  079%=      5-min Rain = 0
KCH1 141401Z 16007KT 23/19 A3001 RMK A01 T02260186  RH  078%=      5-min Rain = 0
KCH1 141402Z 17007KT 23/19 A3001 RMK A01 T02260188  RH  079%=      5-min Rain = 0
KCH1 141403Z 17009KT 23/19 A3001 RMK A01 T02270188  RH  078%=      5-min Rain = 0
KCH1 141404Z 18011KT 23/19 A3001 RMK A01 T02270185  RH  077%=      5-min Rain = 0
KCH1 141405Z 17012KT 23/18 A3001 RMK A01 T02270184  RH  076%=      5-min Rain = 0
KCH1 141406Z 17009KT 23/18 A3001 RMK A01 T02270184  RH  077%=      5-min Rain = 0
KCH1 141407Z 17007KT 23/19 A3001 RMK A01 T02270186  RH  077%=      5-min Rain = 0
KCH1 141408Z 16007KT 23/19 A3001 RMK A01 T02270186  RH  077%=      5-min Rain = 0
KCH1 141409Z 17009KT 23/19 A3001 RMK A01 T02280186  RH  077%=      5-min Rain = 0
KCH1 141410Z 17010KT 23/18 A3001 RMK A01 T02280184  RH  076%=      5-min Rain = 0
KCH1 141411Z 17009KT 23/18 A3001 RMK A01 T02280184  RH  076%=      5-min Rain = 0
KCH1 141412Z 17009KT 23/18 A3001 RMK A01 T02280184  RH  076%=      5-min Rain = 0
KCH1 141413Z 17011KT 23/18 A3001 RMK A01 T02290184  RH  076%=      5-min Rain = 0
KCH1 141414Z 18010KT 23/18 A3001 RMK A01 T02300183  RH  075%=      5-min Rain = 0
KCH1 141415Z 18010KT 23/18 A3001 RMK A01 T02310184  RH  075%=      5-min Rain = 0
KCH1 141416Z 18008KT 23/19 A3001 RMK A01 T02330185  RH  074%=      5-min Rain = 0
KCH1 141417Z 17010KT 23/18 A3001 RMK A01 T02340184  RH  073%=      5-min Rain = 0
KCH1 141418Z 17008KT 24/18 A3001 RMK A01 T02350184  RH  073%=      5-min Rain = 0
KCH1 141419Z 18009KT 24/18 A3001 RMK A01 T02360184  RH  073%=      5-min Rain = 0
KCH1 141420Z 19007KT 24/19 A3001 RMK A01 T02380186  RH  073%=      5-min Rain = 0
KCH1 141421Z 17008KT 24/19 A3001 RMK A01 T02390186  RH  072%=      5-min Rain = 0
KCH1 141422Z 17012KT 24/19 A3001 RMK A01 T02410186  RH  071%=      5-min Rain = 0
KCH1 141423Z 18013KT 24/18 A3001 RMK A01 T02410183  RH  070%=      5-min Rain = 0
KCH1 141424Z 18014KT 24/18 A3001 RMK A01 T02410183  RH  070%=      5-min Rain = 0
KCH1 141425Z 18011KT 24/18 A3001 RMK A01 T02410183  RH  070%=      5-min Rain = 0
KCH1 141426Z 17010G15KT 24/18 A3001 RMK A01 T02410184  RH  070%=      5-min Rain = 0
KCH1 141427Z 18009KT 24/18 A3001 RMK A01 T02420184  RH  070%=      5-min Rain = 0
KCH1 141428Z 17013KT 24/18 A3001 RMK A01 T02430181  RH  068%=      5-min Rain = 0
KCH1 141429Z 20012G18KT 24/18 A30 RMK A01 T02440182  RH  068%=      5-min Rain = 0
KCH1 141430Z 19016KT 24/18 A30 RMK A01 T02430179  RH  067%=      5-min Rain = 0
KCH1 141431Z 19015KT 24/18 A3001 RMK A01 T02430178  RH  067%=      5-min Rain = 0
KCH1 141432Z 18011G16KT 24/18 A3001 RMK A01 T02440178  RH  067%=      5-min Rain = 0
KCH1 141433Z 19012G19KT 24/18 A3001 RMK A01 T02440178  RH  067%=      5-min Rain = 0
KCH1 141434Z 19016G21KT 25/18 A3001 RMK A01 T02450175  RH  065%=      5-min Rain = 0
KCH1 141435Z 19012KT 25/18 A3001 RMK A01 T02450175  RH  065%=      5-min Rain = 0
KCH1 141436Z 19015G22KT 25/17 A3001 RMK A01 T02460174  RH  064%=      5-min Rain = 0
KCH1 141437Z 19012KT 25/17 A3001 RMK A01 T02450174  RH  064%=      5-min Rain = 0
KCH1 141438Z 20015G22KT 25/17 A30 RMK A01 T02460173  RH  064%=      5-min Rain = 0
KCH1 141439Z 18015G21KT 25/17 A3001 RMK A01 T02460174  RH  064%=      5-min Rain = 0
KCH1 141440Z 18014G19KT 25/18 A3001 RMK A01 T02470175  RH  064%=      5-min Rain = 0
KCH1 141441Z 18016G21KT 25/17 A3001 RMK A01 T02470173  RH  063%=      5-min Rain = 0
KCH1 141442Z 19014G20KT 25/17 A3001 RMK A01 T02470173  RH  063%=      5-min Rain = 0
KCH1 141443Z 19017G23KT 25/17 A3001 RMK A01 T02470173  RH  063%=      5-min Rain = 0
KCH1 141444Z 19017G22KT 25/17 A3001 RMK A01 T02470170  RH  062%=      5-min Rain = 0
KCH1 141445Z 19014G20KT 25/17 A3001 RMK A01 T02480170  RH  062%=      5-min Rain = 0
KCH1 141446Z 19014KT 25/17 A3001 RMK A01 T02480170  RH  062%=      5-min Rain = 0
KCH1 141447Z 20012KT 25/17 A3001 RMK A01 T02480172  RH  062%=      5-min Rain = 0
KCH1 141448Z 20014G23KT 25/17 A3001 RMK A01 T02490170  RH  062%=      5-min Rain = 0
KCH1 141449Z 20014G20KT 25/17 A3001 RMK A01 T02500167  RH  060%=      5-min Rain = 0
KCH1 141450Z 20017G26KT 25/17 A3001 RMK A01 T02490169  RH  061%=      5-min Rain = 0
KCH1 141451Z 19018KT 25/17 A3001 RMK A01 T02490168  RH  061%=      5-min Rain = 0
KCH1 141452Z 19011G18KT 25/17 A3001 RMK A01 T02470169  RH  062%=      5-min Rain = 0
KCH1 141453Z 20013G18KT 25/17 A3001 RMK A01 T02470169  RH  062%=      5-min Rain = 0
KCH1 141454Z 20010G15KT 25/17 A3001 RMK A01 T02470170  RH  062%=      5-min Rain = 0
KCH1 141455Z 21013G18KT 25/17 A3001 RMK A01 T02480171  RH  062%=      5-min Rain = 0
KCH1 141456Z 21012G18KT 25/17 A3001 RMK A01 T02490170  RH  061%=      5-min Rain = 0
KCH1 141457Z 21013G22KT 25/17 A3001 RMK A01 T02490170  RH  061%=      5-min Rain = 0
KCH1 141458Z 20017G23KT 25/17 A3001 RMK A01 T02490167  RH  060%=      5-min Rain = 0
KCH1 141459Z 20013G18KT 25/17 A3001 RMK A01 T02490167  RH  060%=      5-min Rain = 0
KCH1 141500Z 20015G20KT 25/17 A3001 RMK A01 T02490167  RH  060%=      5-min Rain = 0
KCH1 141501Z 21010G18KT 25/17 A3001 RMK A01 T02490168  RH  061%=      5-min Rain = 0
KCH1 141502Z 20014KT 25/17 A3001 RMK A01 T02500168  RH  060%=      5-min Rain = 0
KCH1 141503Z 20014KT 25/17 A3001 RMK A01 T02500167  RH  060%=      5-min Rain = 0
KCH1 141504Z 22013KT 25/17 A3001 RMK A01 T02500169  RH  061%=      5-min Rain = 0
KCH1 141505Z 21013G19KT 25/17 A3001 RMK A01 T02500169  RH  061%=      5-min Rain = 0
KCH1 141506Z 20011G18KT 25/17 A3001 RMK A01 T02510170  RH  061%=      5-min Rain = 0
KCH1 141507Z 19010KT 25/17 A3001 RMK A01 T02520171  RH  061%=      5-min Rain = 0
KCH1 141508Z 18010KT 25/17 A3001 RMK A01 T02530173  RH  061%=      5-min Rain = 0
KCH1 141509Z 18013G18KT 26/17 A3001 RMK A01 T02550173  RH  060%=      5-min Rain = 0
KCH1 141510Z 19012G17KT 26/17 A3001 RMK A01 T02550174  RH  061%=      5-min Rain = 0
KCH1 141511Z 19014KT 26/17 A3001 RMK A01 T02560171  RH  059%=      5-min Rain = 0
KCH1 141512Z 19013KT 26/17 A3001 RMK A01 T02560172  RH  060%=      5-min Rain = 0
KCH1 141513Z 20013KT 26/17 A3001 RMK A01 T02550171  RH  060%=      5-min Rain = 0
KCH1 141514Z 18012G19KT 26/17 A3001 RMK A01 T02550172  RH  060%=      5-min Rain = 0
KCH1 141515Z 19015KT 26/17 A3001 RMK A01 T02550169  RH  059%=      5-min Rain = 0
KCH1 141516Z 19014KT 26/17 A3001 RMK A01 T02550170  RH  059%=      5-min Rain = 0
KCH1 141517Z 19011G16KT 26/17 A3001 RMK A01 T02550170  RH  059%=      5-min Rain = 0
KCH1 141518Z 19010G16KT 26/18 A3001 RMK A01 T02560176  RH  061%=      5-min Rain = 0
KCH1 141519Z 17012KT 26/17 A3001 RMK A01 T02600174  RH  059%=      5-min Rain = 0
KCH1 141520Z 19016G22KT 26/17 A3001 RMK A01 T02600172  RH  058%=      5-min Rain = 0
KCH1 141521Z 20016KT 26/17 A3001 RMK A01 T02590169  RH  058%=      5-min Rain = 0
KCH1 141522Z 20012G17KT 26/17 A3001 RMK A01 T02570170  RH  059%=      5-min Rain = 0
KCH1 141523Z 19014KT 26/17 A3001 RMK A01 T02570170  RH  059%=      5-min Rain = 0
KCH1 141524Z 18013KT 26/17 A3001 RMK A01 T02580171  RH  059%=      5-min Rain = 0
KCH1 141525Z 19017G22KT 26/17 A3001 RMK A01 T02590171  RH  058%=      5-min Rain = 0
KCH1 141526Z 20019KT 26/17 A30 RMK A01 T02590169  RH  057%=      5-min Rain = 0
KCH1 141527Z 19013G20KT 26/17 A3001 RMK A01 T02590170  RH  058%=      5-min Rain = 0
KCH1 141528Z 20012G19KT 26/17 A3001 RMK A01 T02590172  RH  059%=      5-min Rain = 0
KCH1 141529Z 20017KT 26/17 A3001 RMK A01 T02600171  RH  058%=      5-min Rain = 0
KCH1 141530Z 19017KT 26/17 A3001 RMK A01 T02600169  RH  057%=      5-min Rain = 0
KCH1 141531Z 18016G22KT 26/17 A30 RMK A01 T02590169  RH  057%=      5-min Rain = 0
KCH1 141532Z 18015G21KT 26/17 A30 RMK A01 T02590169  RH  058%=      5-min Rain = 0
KCH1 141533Z 19014G19KT 26/17 A3001 RMK A01 T02590171  RH  058%=      5-min Rain = 0
KCH1 141534Z 20014KT 26/17 A30 RMK A01 T02600171  RH  058%=      5-min Rain = 0
KCH1 141535Z 20011G16KT 26/17 A3001 RMK A01 T02610172  RH  058%=      5-min Rain = 0
KCH1 141536Z 20014KT 26/17 A3001 RMK A01 T02610171  RH  058%=      5-min Rain = 0
KCH1 141537Z 19014KT 26/17 A3001 RMK A01 T02610171  RH  058%=      5-min Rain = 0
KCH1 141538Z 19016KT 26/17 A30 RMK A01 T02610171  RH  058%=      5-min Rain = 0
KCH1 141539Z 18012G17KT 26/17 A3001 RMK A01 T02610171  RH  058%=      5-min Rain = 0
KCH1 141540Z 19013G19KT 26/17 A30 RMK A01 T02610172  RH  058%=      5-min Rain = 0
KCH1 141541Z 19013KT 26/17 A3001 RMK A01 T02620172  RH  058%=      5-min Rain = 0
KCH1 141542Z 19012G20KT 26/17 A30 RMK A01 T02620174  RH  058%=      5-min Rain = 0
KCH1 141543Z 18013KT 26/17 A30 RMK A01 T02630173  RH  058%=      5-min Rain = 0
KCH1 141544Z 18014KT 26/17 A30 RMK A01 T02640174  RH  057%=      5-min Rain = 0
KCH1 141545Z 17014KT 27/17 A30 RMK A01 T02650174  RH  058%=      5-min Rain = 0
KCH1 141546Z 18014KT 27/17 A30 RMK A01 T02660173  RH  057%=      5-min Rain = 0
KCH1 141547Z 17013KT 27/18 A30 RMK A01 T02660175  RH  057%=      5-min Rain = 0
KCH1 141548Z 17014KT 27/17 A30 RMK A01 T02670174  RH  057%=      5-min Rain = 0
KCH1 141549Z 18015G20KT 27/17 A30 RMK A01 T02670174  RH  057%=      5-min Rain = 0
KCH1 141550Z 19012KT 27/18 A30 RMK A01 T02680176  RH  057%=      5-min Rain = 0
KCH1 141551Z 18010G15KT 27/18 A30 RMK A01 T02680177  RH  057%=      5-min Rain = 0
KCH1 141552Z 18012KT 27/18 A2999 RMK A01 T02700177  RH  057%=      5-min Rain = 0
KCH1 141553Z 18009G15KT 27/18 A30 RMK A01 T02700180  RH  058%=      5-min Rain = 0
KCH1 141554Z 18011G16KT 27/18 A30 RMK A01 T02710178  RH  057%=      5-min Rain = 0
KCH1 141555Z 19014G19KT 27/18 A2999 RMK A01 T02710179  RH  057%=      5-min Rain = 0
KCH1 141556Z 20017G22KT 27/18 A2999 RMK A01 T02720175  RH  056%=      5-min Rain = 0
KCH1 141557Z 20013KT 27/18 A30 RMK A01 T02710175  RH  056%=      5-min Rain = 0
KCH1 141558Z 19014G19KT 27/18 A2999 RMK A01 T02710176  RH  056%=      5-min Rain = 0
KCH1 141559Z 21010G16KT 27/18 A2999 RMK A01 T02740178  RH  056%=      5-min Rain = 0
KCH1 141600Z 21012G17KT 28/18 A2999 RMK A01 T02770178  RH  055%=      5-min Rain = 0
KCH1 141601Z 19013KT 28/18 A2999 RMK A01 T02770177  RH  054%=      5-min Rain = 0
KCH1 141602Z 20010KT 28/18 A2999 RMK A01 T02760178  RH  055%=      5-min Rain = 0
KCH1 141603Z 20013KT 27/18 A2999 RMK A01 T02740176  RH  055%=      5-min Rain = 0
KCH1 141604Z 20012G17KT 27/18 A2999 RMK A01 T02720175  RH  055%=      5-min Rain = 0
KCH1 141605Z 20010KT 27/18 A2999 RMK A01 T02710176  RH  056%=      5-min Rain = 0
KCH1 141606Z 19012G19KT 27/18 A2999 RMK A01 T02710178  RH  057%=      5-min Rain = 0
KCH1 141607Z 17012KT 27/17 A2999 RMK A01 T02710174  RH  055%=      5-min Rain = 0
KCH1 141608Z 20011G16KT 27/18 A2999 RMK A01 T02720178  RH  056%=      5-min Rain = 0
KCH1 141609Z 19012KT 28/18 A2999 RMK A01 T02750178  RH  055%=      5-min Rain = 0
KCH1 141610Z 19011KT 28/18 A2999 RMK A01 T02770180  RH  055%=      5-min Rain = 0
KCH1 141611Z 20016KT 28/18 A2999 RMK A01 T02790178  RH  054%=      5-min Rain = 0
KCH1 141612Z 19016KT 28/18 A2999 RMK A01 T02770175  RH  054%=      5-min Rain = 0
KCH1 141613Z 19016KT 27/17 A2999 RMK A01 T02740173  RH  054%=      5-min Rain = 0
KCH1 141614Z 18015KT 27/17 A2999 RMK A01 T02720172  RH  054%=      5-min Rain = 0
KCH1 141615Z 19015KT 27/17 A2999 RMK A01 T02720174  RH  055%=      5-min Rain = 0
KCH1 141616Z 19013KT 27/18 A2999 RMK A01 T02720176  RH  056%=      5-min Rain = 0
KCH1 141617Z 20009G14KT 27/18 A2999 RMK A01 T02720178  RH  057%=      5-min Rain = 0
KCH1 141618Z 20014G19KT 27/18 A2999 RMK A01 T02720177  RH  056%=      5-min Rain = 0
KCH1 141619Z 20014KT 27/17 A2999 RMK A01 T02720174  RH  055%=      5-min Rain = 0
KCH1 141620Z 20011G16KT 27/18 A2999 RMK A01 T02720175  RH  056%=      5-min Rain = 0
KCH1 141621Z 20012KT 27/18 A30 RMK A01 T02720176  RH  055%=      5-min Rain = 0
KCH1 141622Z 20012KT 27/18 A30 RMK A01 T02730175  RH  055%=      5-min Rain = 0
KCH1 141623Z 20014KT 27/18 A30 RMK A01 T02740176  RH  055%=      5-min Rain = 0
KCH1 141624Z 18008G13KT 28/18 A30 RMK A01 T02750182  RH  057%=      5-min Rain = 0
KCH1 141625Z 18009KT 28/18 A30 RMK A01 T02780183  RH  056%=      5-min Rain = 0
KCH1 141626Z 19010G15KT 28/18 A30 RMK A01 T02800182  RH  056%=      5-min Rain = 0
KCH1 141627Z 19011KT 28/18 A30 RMK A01 T02790181  RH  055%=      5-min Rain = 0
KCH1 141628Z 18010KT 28/18 A30 RMK A01 T02770183  RH  056%=      5-min Rain = 0
KCH1 141629Z 18011KT 28/18 A30 RMK A01 T02770179  RH  055%=      5-min Rain = 0
KCH1 141630Z 19011G16KT 28/18 A30 RMK A01 T02750177  RH  055%=      5-min Rain = 0
KCH1 141631Z 18014KT 27/18 A30 RMK A01 T02730176  RH  055%=      5-min Rain = 0
KCH1 141632Z 18013KT 27/18 A30 RMK A01 T02730176  RH  055%=      5-min Rain = 0
KCH1 141633Z 18013G18KT 27/18 A30 RMK A01 T02720175  RH  055%=      5-min Rain = 0
KCH1 141634Z 19012KT 27/18 A30 RMK A01 T02720176  RH  056%=      5-min Rain = 0
KCH1 141635Z 18015KT 27/18 A30 RMK A01 T02740177  RH  055%=      5-min Rain = 0
KCH1 141636Z 18011G16KT 27/18 A30 RMK A01 T02740176  RH  055%=      5-min Rain = 0
KCH1 141637Z 18013KT 27/18 A30 RMK A01 T02740178  RH  056%=      5-min Rain = 0
KCH1 141638Z 19011KT 27/18 A30 RMK A01 T02730178  RH  056%=      5-min Rain = 0
KCH1 141639Z 19016KT 27/18 A30 RMK A01 T02720176  RH  056%=      5-min Rain = 0
KCH1 141640Z 19013G18KT 27/17 A30 RMK A01 T02700173  RH  055%=      5-min Rain = 0
KCH1 141641Z 19010KT 27/18 A30 RMK A01 T02690176  RH  057%=      5-min Rain = 0
KCH1 141642Z 19010KT 27/18 A30 RMK A01 T02710178  RH  057%=      5-min Rain = 0
KCH1 141643Z 17011KT 27/18 A30 RMK A01 T02730180  RH  057%=      5-min Rain = 0
KCH1 141644Z 18013KT 28/18 A30 RMK A01 T02760178  RH  055%=      5-min Rain = 0
KCH1 141645Z 19015KT 28/18 A30 RMK A01 T02760177  RH  055%=      5-min Rain = 0
KCH1 141646Z 19012KT 28/18 A30 RMK A01 T02760178  RH  055%=      5-min Rain = 0
KCH1 141647Z 18017KT 28/18 A2999 RMK A01 T02760176  RH  055%=      5-min Rain = 0
KCH1 141648Z 18015KT 28/17 A30 RMK A01 T02750174  RH  054%=      5-min Rain = 0
KCH1 141649Z 18012G17KT 27/18 A30 RMK A01 T02740177  RH  055%=      5-min Rain = 0
KCH1 141650Z 18009KT 27/18 A30 RMK A01 T02740179  RH  056%=      5-min Rain = 0
KCH1 141651Z 18012KT 28/18 A2999 RMK A01 T02760179  RH  056%=      5-min Rain = 0
KCH1 141652Z 18014KT 28/18 A2999 RMK A01 T02760178  RH  055%=      5-min Rain = 0
KCH1 141653Z 17014KT 28/18 A2999 RMK A01 T02770177  RH  054%=      5-min Rain = 0
KCH1 141654Z 19013KT 28/18 A2999 RMK A01 T02770178  RH  055%=      5-min Rain = 0
KCH1 141655Z 19014KT 28/18 A30 RMK A01 T02780181  RH  055%=      5-min Rain = 0
KCH1 141656Z 18015KT 28/18 A30 RMK A01 T02800179  RH  054%=      5-min Rain = 0
KCH1 141657Z 18012G18KT 28/18 A2999 RMK A01 T02810178  RH  054%=      5-min Rain = 0
KCH1 141658Z 20011KT 28/18 A2999 RMK A01 T02810180  RH  054%=      5-min Rain = 0
KCH1 141659Z 19009KT 28/18 A2999 RMK A01 T02810180  RH  054%=      5-min Rain = 0
KCH1 141700Z 19010KT 28/18 A2999 RMK A01 T02830183  RH  055%=      5-min Rain = 0
KCH1 141701Z 19008KT 29/18 A2999 RMK A01 T02850184  RH  054%=      5-min Rain = 0
KCH1 141702Z 18008KT 29/19 A2999 RMK A01 T02870185  RH  054%=      5-min Rain = 0
KCH1 141703Z 18010G15KT 29/19 A2999 RMK A01 T02890188  RH  054%=      5-min Rain = 0
KCH1 141704Z 17013KT 29/18 A2999 RMK A01 T02910184  RH  053%=      5-min Rain = 0
KCH1 141705Z 19011KT 29/18 A2999 RMK A01 T02900183  RH  053%=      5-min Rain = 0
KCH1 141706Z 18015G20KT 29/19 A2999 RMK A01 T02890185  RH  053%=      5-min Rain = 0
KCH1 141707Z 19013KT 29/18 A2999 RMK A01 T02890181  RH  052%=      5-min Rain = 0
KCH1 141708Z 19011G16KT 29/18 A2999 RMK A01 T02870183  RH  053%=      5-min Rain = 0
KCH1 141709Z 18016G21KT 29/18 A2999 RMK A01 T02870181  RH  053%=      5-min Rain = 0
KCH1 141710Z 19012KT 29/18 A2999 RMK A01 T02860179  RH  052%=      5-min Rain = 0
KCH1 141711Z 18010KT 29/18 A2999 RMK A01 T02850180  RH  053%=      5-min Rain = 0
KCH1 141712Z 18010KT 29/18 A2999 RMK A01 T02850181  RH  053%=      5-min Rain = 0
KCH1 141713Z 19007KT 29/19 A2999 RMK A01 T02850186  RH  055%=      5-min Rain = 0
KCH1 141714Z 19011KT 29/19 A2999 RMK A01 T02870188  RH  055%=      5-min Rain = 0
KCH1 141715Z 19013G18KT 29/18 A2998 RMK A01 T02880180  RH  052%=      5-min Rain = 0
KCH1 141716Z 20014G20KT 29/18 A2998 RMK A01 T02870181  RH  053%=      5-min Rain = 0
KCH1 141717Z 18014G19KT 29/18 A2998 RMK A01 T02870181  RH  053%=      5-min Rain = 0
KCH1 141718Z 18015G22KT 29/18 A2998 RMK A01 T02880182  RH  053%=      5-min Rain = 0
KCH1 141719Z 17015KT 29/18 A2998 RMK A01 T02880181  RH  052%=      5-min Rain = 0
KCH1 141720Z 19014KT 29/18 A2998 RMK A01 T02880183  RH  053%=      5-min Rain = 0
KCH1 141721Z 19010G16KT 29/18 A2998 RMK A01 T02890184  RH  053%=      5-min Rain = 0
KCH1 141722Z 19011KT 29/19 A2998 RMK A01 T02910185  RH  053%=      5-min Rain = 0
KCH1 141723Z 19008KT 29/19 A2998 RMK A01 T02920186  RH  053%=      5-min Rain = 0
KCH1 141724Z 19014G19KT 29/19 A2998 RMK A01 T02940187  RH  053%=      5-min Rain = 0
KCH1 141725Z 17011G16KT 29/18 A2998 RMK A01 T02940182  RH  051%=      5-min Rain = 0
KCH1 141726Z 18013KT 29/18 A2998 RMK A01 T02920184  RH  052%=      5-min Rain = 0
KCH1 141727Z 18013KT 29/18 A2998 RMK A01 T02920182  RH  051%=      5-min Rain = 0
KCH1 141728Z 20010G15KT 29/18 A2998 RMK A01 T02920184  RH  052%=      5-min Rain = 0
KCH1 141729Z 19013KT 29/19 A2998 RMK A01 T02930187  RH  053%=      5-min Rain = 0
KCH1 141730Z 19014G20KT 29/18 A2998 RMK A01 T02940184  RH  051%=      5-min Rain = 0
KCH1 141731Z 17014G19KT 29/18 A2998 RMK A01 T02940182  RH  051%=      5-min Rain = 0
KCH1 141732Z 18016KT 29/18 A2998 RMK A01 T02940183  RH  051%=      5-min Rain = 0
KCH1 141733Z 17016KT 29/18 A2997 RMK A01 T02940180  RH  050%=      5-min Rain = 0
KCH1 141734Z 19014G19KT 29/18 A2998 RMK A01 T02920180  RH  051%=      5-min Rain = 0
KCH1 141735Z 20014G19KT 29/18 A2997 RMK A01 T02920179  RH  050%=      5-min Rain = 0
KCH1 141736Z 20016G21KT 29/18 A2997 RMK A01 T02910179  RH  051%=      5-min Rain = 0
KCH1 141737Z 19013G19KT 29/18 A2997 RMK A01 T02910178  RH  051%=      5-min Rain = 0
KCH1 141738Z 20011G17KT 29/18 A2997 RMK A01 T02910182  RH  052%=      5-min Rain = 0
KCH1 141739Z 19013KT 29/18 A2997 RMK A01 T02920181  RH  051%=      5-min Rain = 0
KCH1 141740Z 19012G17KT 29/18 A2997 RMK A01 T02930184  RH  052%=      5-min Rain = 0
KCH1 141741Z 19015G21KT 29/18 A2997 RMK A01 T02940181  RH  050%=      5-min Rain = 0
KCH1 141742Z 19016KT 29/18 A2997 RMK A01 T02940183  RH  051%=      5-min Rain = 0
KCH1 141743Z 19013KT 29/18 A2997 RMK A01 T02940183  RH  051%=      5-min Rain = 0
KCH1 141744Z 20015KT 30/18 A2997 RMK A01 T02950183  RH  051%=      5-min Rain = 0
KCH1 141745Z 19011KT 30/18 A2998 RMK A01 T02960182  RH  050%=      5-min Rain = 0
KCH1 141746Z 19011KT 30/18 A2998 RMK A01 T02960183  RH  051%=      5-min Rain = 0
KCH1 141747Z 19012G19KT 30/18 A2998 RMK A01 T02960183  RH  051%=      5-min Rain = 0
KCH1 141748Z 19011KT 30/18 A2998 RMK A01 T02970184  RH  051%=      5-min Rain = 0
KCH1 141749Z 19012KT 30/19 A2998 RMK A01 T02970185  RH  051%=      5-min Rain = 0
KCH1 141750Z 21013KT 30/18 A2997 RMK A01 T02980184  RH  050%=      5-min Rain = 0
KCH1 141751Z 21014KT 30/18 A2997 RMK A01 T02980182  RH  050%=      5-min Rain = 0
KCH1 141752Z 19014G20KT 30/18 A2997 RMK A01 T02960181  RH  050%=      5-min Rain = 0
KCH1 141753Z 19017G22KT 30/18 A2997 RMK A01 T02950181  RH  050%=      5-min Rain = 0
KCH1 141754Z 19016KT 29/18 A2997 RMK A01 T02940180  RH  050%=      5-min Rain = 0
KCH1 141755Z 20012G19KT 29/18 A2997 RMK A01 T02920181  RH  051%=      5-min Rain = 0
KCH1 141756Z 20013KT 29/18 A2997 RMK A01 T02910178  RH  050%=      5-min Rain = 0
KCH1 141757Z 20009KT 29/18 A2997 RMK A01 T02890180  RH  052%=      5-min Rain = 0
KCH1 141758Z 19013KT 29/18 A2997 RMK A01 T02890181  RH  052%=      5-min Rain = 0
KCH1 141759Z 21012G21KT 29/18 A2997 RMK A01 T02880180  RH  052%=      5-min Rain = 0
KCH1 141800Z 21012G18KT 29/18 A2997 RMK A01 T02870181  RH  052%=      5-min Rain = 0
KCH1 141801Z 20013G19KT 29/18 A2997 RMK A01 T02870179  RH  052%=      5-min Rain = 0
KCH1 141802Z 20012G17KT 29/18 A2997 RMK A01 T02870179  RH  052%=      5-min Rain = 0
KCH1 141803Z 21011G17KT 29/18 A2997 RMK A01 T02880180  RH  052%=      5-min Rain = 0
KCH1 141804Z 21011KT 29/18 A2996 RMK A01 T02900182  RH  052%=      5-min Rain = 0
KCH1 141805Z 21014KT 29/18 A2996 RMK A01 T02920181  RH  051%=      5-min Rain = 0
KCH1 141806Z 21013G18KT 29/18 A2996 RMK A01 T02940183  RH  051%=      5-min Rain = 0
KCH1 141807Z 21011G19KT 30/18 A2996 RMK A01 T02960181  RH  050%=      5-min Rain = 0
KCH1 141808Z 22014G19KT 30/18 A2996 RMK A01 T02970184  RH  051%=      5-min Rain = 0
KCH1 141809Z 21011KT 30/18 A2996 RMK A01 T02980183  RH  050%=      5-min Rain = 0
KCH1 141810Z 20012KT 30/18 A2996 RMK A01 T02990184  RH  050%=      5-min Rain = 0
KCH1 141811Z 20009KT 30/18 A2996 RMK A01 T03000184  RH  050%=      5-min Rain = 0
KCH1 141812Z 22011KT 30/19 A2996 RMK A01 T03000189  RH  051%=      5-min Rain = 0
KCH1 141813Z 20011G16KT 30/19 A2996 RMK A01 T03020189  RH  051%=      5-min Rain = 0
KCH1 141814Z 19016KT 30/19 A2996 RMK A01 T03040187  RH  049%=      5-min Rain = 0
KCH1 141815Z 19015G20KT 30/18 A2996 RMK A01 T03030184  RH  049%=      5-min Rain = 0
KCH1 141816Z 19014G19KT 30/18 A2996 RMK A01 T03020182  RH  049%=      5-min Rain = 0
KCH1 141817Z 20014G19KT 30/18 A2996 RMK A01 T03010184  RH  049%=      5-min Rain = 0
KCH1 141818Z 20016KT 30/18 A2996 RMK A01 T03010182  RH  049%=      5-min Rain = 0
KCH1 141819Z 21013G18KT 30/18 A2996 RMK A01 T03000183  RH  049%=      5-min Rain = 0
KCH1 141820Z 20015KT 30/18 A2996 RMK A01 T03010182  RH  049%=      5-min Rain = 0
KCH1 141821Z 20015G21KT 30/18 A2996 RMK A01 T03000184  RH  050%=      5-min Rain = 0
KCH1 141822Z 19015KT 30/18 A2996 RMK A01 T03000182  RH  049%=      5-min Rain = 0
KCH1 141823Z 19011KT 30/19 A2996 RMK A01 T03000185  RH  050%=      5-min Rain = 0
KCH1 141824Z 20015KT 30/18 A2995 RMK A01 T03000184  RH  050%=      5-min Rain = 0
KCH1 141825Z 19013G19KT 30/18 A2995 RMK A01 T03000184  RH  050%=      5-min Rain = 0
KCH1 141826Z 18014G19KT 30/18 A2995 RMK A01 T03000184  RH  050%=      5-min Rain = 0
KCH1 141827Z 18017KT 30/18 A2995 RMK A01 T03010183  RH  049%=      5-min Rain = 0
KCH1 141828Z 20016KT 30/18 A2995 RMK A01 T03000183  RH  049%=      5-min Rain = 0
KCH1 141829Z 18015G21KT 30/18 A2995 RMK A01 T03000184  RH  050%=      5-min Rain = 0
KCH1 141830Z 18014KT 30/19 A2995 RMK A01 T03000185  RH  050%=      5-min Rain = 0
KCH1 141831Z 20012G20KT 30/19 A2995 RMK A01 T03010189  RH  051%=      5-min Rain = 0
KCH1 141832Z 19012G17KT 30/19 A2995 RMK A01 T03030187  RH  050%=      5-min Rain = 0
KCH1 141833Z 19012KT 30/19 A2995 RMK A01 T03040186  RH  049%=      5-min Rain = 0
KCH1 141834Z 19011G17KT 31/19 A2995 RMK A01 T03050194  RH  052%=      5-min Rain = 0
KCH1 141835Z 19015G20KT 31/19 A2995 RMK A01 T03070188  RH  049%=      5-min Rain = 0
KCH1 141836Z 19014G19KT 31/19 A2994 RMK A01 T03060187  RH  049%=      5-min Rain = 0
KCH1 141837Z 19017G22KT 31/19 A2994 RMK A01 T03050186  RH  049%=      5-min Rain = 0
KCH1 141838Z 19017KT 31/18 A2994 RMK A01 T03050184  RH  048%=      5-min Rain = 0
KCH1 141839Z 19015G20KT 30/18 A2994 RMK A01 T03030184  RH  049%=      5-min Rain = 0
KCH1 141840Z 19015KT 30/19 A2994 RMK A01 T03030186  RH  049%=      5-min Rain = 0
KCH1 141841Z 21012KT 30/19 A2994 RMK A01 T03030185  RH  049%=      5-min Rain = 0
KCH1 141842Z 20013KT 30/19 A2994 RMK A01 T03040185  RH  049%=      5-min Rain = 0
KCH1 141843Z 20016KT 30/19 A2994 RMK A01 T03030187  RH  050%=      5-min Rain = 0
KCH1 141844Z 19019G24KT 30/19 A2994 RMK A01 T03040186  RH  049%=      5-min Rain = 0
KCH1 141845Z 19014KT 30/19 A2994 RMK A01 T03040187  RH  050%=      5-min Rain = 0
KCH1 141846Z 20013KT 31/19 A2994 RMK A01 T03050189  RH  050%=      5-min Rain = 0
KCH1 141847Z 20014KT 31/19 A2994 RMK A01 T03060186  RH  049%=      5-min Rain = 0
KCH1 141848Z 19016G22KT 31/19 A2994 RMK A01 T03060186  RH  049%=      5-min Rain = 0
KCH1 141849Z 18017G22KT 31/19 A2994 RMK A01 T03060186  RH  049%=      5-min Rain = 0
KCH1 141850Z 18016KT 31/18 A2994 RMK A01 T03050184  RH  048%=      5-min Rain = 0
KCH1 141851Z 19014G20KT 31/19 A2994 RMK A01 T03050187  RH  049%=      5-min Rain = 0
KCH1 141852Z 19015G20KT 31/19 A2994 RMK A01 T03060187  RH  049%=      5-min Rain = 0
KCH1 141853Z 20014KT 31/19 A2994 RMK A01 T03070188  RH  049%=      5-min Rain = 0
KCH1 141854Z 19013G18KT 31/19 A2994 RMK A01 T03070189  RH  050%=      5-min Rain = 0
KCH1 141855Z 19016KT 31/19 A2994 RMK A01 T03070187  RH  049%=      5-min Rain = 0
KCH1 141856Z 18016KT 31/19 A2994 RMK A01 T03070187  RH  049%=      5-min Rain = 0
KCH1 141857Z 17012G20KT 31/19 A2994 RMK A01 T03070190  RH  050%=      5-min Rain = 0
KCH1 141858Z 18011G17KT 31/19 A2994 RMK A01 T03090194  RH  050%=      5-min Rain = 0
KCH1 141859Z 19017G22KT 31/19 A2994 RMK A01 T03120189  RH  048%=      5-min Rain = 0
KCH1 141900Z 19016G21KT 31/19 A2994 RMK A01 T03110189  RH  048%=      5-min Rain = 0
KCH1 141901Z 20014G19KT 31/19 A2994 RMK A01 T03100186  RH  048%=      5-min Rain = 0
KCH1 141902Z 19011KT 31/19 A2994 RMK A01 T03100190  RH  049%=      5-min Rain = 0
KCH1 141903Z 19013KT 31/19 A2994 RMK A01 T03110192  RH  049%=      5-min Rain = 0
KCH1 141904Z 20011KT 31/19 A2994 RMK A01 T03130191  RH  048%=      5-min Rain = 0
KCH1 141905Z 21014KT 31/19 A2994 RMK A01 T03140186  RH  047%=      5-min Rain = 0
KCH1 141906Z 20014G19KT 31/19 A2994 RMK A01 T03120186  RH  047%=      5-min Rain = 0
KCH1 141907Z 20015KT 31/18 A2994 RMK A01 T03120184  RH  047%=      5-min Rain = 0
KCH1 141908Z 20014KT 31/19 A2994 RMK A01 T03110185  RH  047%=      5-min Rain = 0
KCH1 141909Z 19012G17KT 31/19 A2994 RMK A01 T03110188  RH  048%=      5-min Rain = 0
KCH1 141910Z 19015G20KT 31/19 A2993 RMK A01 T03110186  RH  047%=      5-min Rain = 0
KCH1 141911Z 19012KT 31/19 A2994 RMK A01 T03120191  RH  048%=      5-min Rain = 0
KCH1 141912Z 18015KT 31/19 A2993 RMK A01 T03130188  RH  047%=      5-min Rain = 0
KCH1 141913Z 17013KT 31/19 A2993 RMK A01 T03130188  RH  047%=      5-min Rain = 0
KCH1 141914Z 18015KT 31/19 A2993 RMK A01 T03130187  RH  047%=      5-min Rain = 0
KCH1 141915Z 18015KT 31/19 A2993 RMK A01 T03130189  RH  048%=      5-min Rain = 0
KCH1 141916Z 18014KT 31/19 A2993 RMK A01 T03130187  RH  047%=      5-min Rain = 0
KCH1 141917Z 19009G14KT 31/19 A2993 RMK A01 T03140190  RH  048%=      5-min Rain = 0
KCH1 141918Z 20008G14KT 31/19 A2993 RMK A01 T03140193  RH  049%=      5-min Rain = 0
KCH1 141919Z 20016G21KT 32/19 A2993 RMK A01 T03150189  RH  047%=      5-min Rain = 0
KCH1 141920Z 20010KT 31/19 A2993 RMK A01 T03130189  RH  048%=      5-min Rain = 0
KCH1 141921Z 20007KT 31/19 A2993 RMK A01 T03120194  RH  049%=      5-min Rain = 0
KCH1 141922Z 21009G16KT 31/20 A2993 RMK A01 T03140195  RH  049%=      5-min Rain = 0
KCH1 141923Z 21014KT 32/19 A2993 RMK A01 T03150189  RH  047%=      5-min Rain = 0
KCH1 141924Z 21010G18KT 31/19 A2993 RMK A01 T03120190  RH  048%=      5-min Rain = 0
KCH1 141925Z 20013KT 31/19 A2993 RMK A01 T03110188  RH  048%=      5-min Rain = 0
KCH1 141926Z 20012G19KT 31/19 A2993 RMK A01 T03100187  RH  048%=      5-min Rain = 0
KCH1 141927Z 19012G18KT 31/19 A2993 RMK A01 T03100190  RH  049%=      5-min Rain = 0
KCH1 141928Z 21013G18KT 31/19 A2993 RMK A01 T03110190  RH  048%=      5-min Rain = 0
KCH1 141929Z 19014KT 31/19 A2993 RMK A01 T03110188  RH  048%=      5-min Rain = 0
KCH1 141930Z 19015KT 31/18 A2993 RMK A01 T03080184  RH  048%=      5-min Rain = 0
KCH1 141931Z 18014G20KT 31/19 A2993 RMK A01 T03050187  RH  049%=      5-min Rain = 0
KCH1 141932Z 18013KT 30/19 A2993 RMK A01 T03040187  RH  050%=      5-min Rain = 0
KCH1 141933Z 18017KT 30/18 A2993 RMK A01 T03040184  RH  049%=      5-min Rain = 0
KCH1 141934Z 19013KT 30/18 A2993 RMK A01 T03030184  RH  049%=      5-min Rain = 0
KCH1 141935Z 19015KT 30/19 A2993 RMK A01 T03040185  RH  049%=      5-min Rain = 0
KCH1 141936Z 19014G19KT 31/18 A2993 RMK A01 T03050183  RH  048%=      5-min Rain = 0
KCH1 141937Z 18013G18KT 31/19 A2993 RMK A01 T03070186  RH  048%=      5-min Rain = 0
KCH1 141938Z 20014KT 31/18 A2993 RMK A01 T03080184  RH  048%=      5-min Rain = 0
KCH1 141939Z 20016KT 31/19 A2993 RMK A01 T03090185  RH  048%=      5-min Rain = 0
KCH1 141940Z 19016KT 31/18 A2992 RMK A01 T03090182  RH  047%=      5-min Rain = 0
KCH1 141941Z 18012G17KT 31/18 A2993 RMK A01 T03100184  RH  047%=      5-min Rain = 0
KCH1 141942Z 20013KT 31/19 A2993 RMK A01 T03120186  RH  047%=      5-min Rain = 0
KCH1 141943Z 20016G21KT 31/18 A2992 RMK A01 T03120184  RH  046%=      5-min Rain = 0
KCH1 141944Z 20014KT 31/19 A2992 RMK A01 T03120185  RH  047%=      5-min Rain = 0
KCH1 141945Z 18014KT 31/19 A2992 RMK A01 T03130187  RH  047%=      5-min Rain = 0
KCH1 141946Z 17017KT 31/18 A2992 RMK A01 T03130183  RH  046%=      5-min Rain = 0
KCH1 141947Z 20011KT 31/19 A2992 RMK A01 T03120185  RH  047%=      5-min Rain = 0
KCH1 141948Z 20015KT 31/18 A2992 RMK A01 T03120184  RH  047%=      5-min Rain = 0
KCH1 141949Z 21009G14KT 31/19 A2992 RMK A01 T03120188  RH  048%=      5-min Rain = 0
KCH1 141950Z 19008G13KT 31/19 A2992 RMK A01 T03130194  RH  049%=      5-min Rain = 0
KCH1 141951Z 19012KT 32/19 A2992 RMK A01 T03160190  RH  047%=      5-min Rain = 0
KCH1 141952Z 18012G17KT 32/19 A2992 RMK A01 T03160191  RH  048%=      5-min Rain = 0
KCH1 141953Z 18015G20KT 32/19 A2992 RMK A01 T03160189  RH  047%=      5-min Rain = 0
KCH1 141954Z 19011KT 32/19 A2992 RMK A01 T03150191  RH  048%=      5-min Rain = 0
KCH1 141955Z 18013KT 32/19 A2992 RMK A01 T03160190  RH  047%=      5-min Rain = 0
KCH1 141956Z 19013KT 32/19 A2992 RMK A01 T03160188  RH  047%=      5-min Rain = 0
KCH1 141957Z 18014G19KT 32/19 A2992 RMK A01 T03160189  RH  047%=      5-min Rain = 0
KCH1 141958Z 18014G19KT 32/19 A2992 RMK A01 T03150187  RH  047%=      5-min Rain = 0
KCH1 141959Z 18016KT 31/19 A2992 RMK A01 T03140189  RH  047%=      5-min Rain = 0
KCH1 142000Z 18015KT 31/19 A2992 RMK A01 T03140187  RH  047%=      5-min Rain = 0
KCH1 142001Z 19011KT 31/19 A2992 RMK A01 T03130189  RH  048%=      5-min Rain = 0
KCH1 142002Z 18010G15KT 31/19 A2992 RMK A01 T03130189  RH  048%=      5-min Rain = 0
KCH1 142003Z 19013KT 31/19 A2992 RMK A01 T03140191  RH  048%=      5-min Rain = 0
KCH1 142004Z 19015G20KT 32/19 A2992 RMK A01 T03150191  RH  048%=      5-min Rain = 0
KCH1 142005Z 19014G19KT 32/19 A2992 RMK A01 T03160189  RH  047%=      5-min Rain = 0
KCH1 142006Z 20010KT 32/19 A2992 RMK A01 T03160192  RH  048%=      5-min Rain = 0
KCH1 142007Z 20012KT 32/19 A2992 RMK A01 T03170189  RH  046%=      5-min Rain = 0
KCH1 142008Z 20009G16KT 32/19 A2992 RMK A01 T03170190  RH  047%=      5-min Rain = 0
KCH1 142009Z 19010G15KT 32/20 A2992 RMK A01 T03180195  RH  048%=      5-min Rain = 0
KCH1 142010Z 18011KT 32/19 A2991 RMK A01 T03190191  RH  047%=      5-min Rain = 0
KCH1 142011Z 19012KT 32/20 A2991 RMK A01 T03190195  RH  048%=      5-min Rain = 0
KCH1 142012Z 19016KT 32/19 A2991 RMK A01 T03190191  RH  047%=      5-min Rain = 0
KCH1 142013Z 20013G20KT 32/19 A2991 RMK A01 T03190190  RH  047%=      5-min Rain = 0
KCH1 142014Z 18013G19KT 32/19 A2991 RMK A01 T03180192  RH  047%=      5-min Rain = 0
KCH1 142015Z 19013KT 32/19 A2991 RMK A01 T03180187  RH  046%=      5-min Rain = 0
KCH1 142016Z 18015KT 32/19 A2991 RMK A01 T03170190  RH  047%=      5-min Rain = 0
KCH1 142017Z 18017KT 32/19 A2991 RMK A01 T03170187  RH  046%=      5-min Rain = 0
KCH1 142018Z 17016KT 32/19 A2991 RMK A01 T03160186  RH  046%=      5-min Rain = 0
KCH1 142019Z 17017KT 32/19 A2991 RMK A01 T03150187  RH  047%=      5-min Rain = 0
KCH1 142020Z 17016KT 32/19 A2991 RMK A01 T03150188  RH  047%=      5-min Rain = 0
KCH1 142021Z 18012G17KT 32/19 A2991 RMK A01 T03150188  RH  047%=      5-min Rain = 0
KCH1 142022Z 19013KT 32/19 A2991 RMK A01 T03160192  RH  048%=      5-min Rain = 0
KCH1 142023Z 18012KT 32/19 A2991 RMK A01 T03170193  RH  048%=      5-min Rain = 0
KCH1 142024Z 18013G19KT 32/19 A2991 RMK A01 T03190191  RH  047%=      5-min Rain = 0
KCH1 142025Z 18016G21KT 32/19 A2991 RMK A01 T03190190  RH  046%=      5-min Rain = 0
KCH1 142026Z 19015KT 32/19 A2991 RMK A01 T03200187  RH  045%=      5-min Rain = 0
KCH1 142027Z 19016KT 32/19 A2991 RMK A01 T03180188  RH  046%=      5-min Rain = 0
KCH1 142028Z 20014G19KT 32/19 A2991 RMK A01 T03180186  RH  046%=      5-min Rain = 0
KCH1 142029Z 20012G17KT 32/19 A2991 RMK A01 T03180189  RH  046%=      5-min Rain = 0
KCH1 142030Z 20013KT 32/19 A2991 RMK A01 T03190192  RH  047%=      5-min Rain = 0
KCH1 142031Z 21012KT 32/19 A2991 RMK A01 T03200188  RH  045%=      5-min Rain = 0
KCH1 142032Z 21009KT 32/19 A2991 RMK A01 T03200191  RH  046%=      5-min Rain = 0
KCH1 142033Z 19011KT 32/19 A299 RMK A01 T03210194  RH  047%=      5-min Rain = 0
KCH1 142034Z 19013G18KT 32/19 A299 RMK A01 T03230193  RH  046%=      5-min Rain = 0
KCH1 142035Z 19015KT 32/19 A299 RMK A01 T03240190  RH  045%=      5-min Rain = 0
KCH1 142036Z 19015G21KT 32/19 A299 RMK A01 T03220189  RH  045%=      5-min Rain = 0
KCH1 142037Z 19017G22KT 32/19 A299 RMK A01 T03210187  RH  045%=      5-min Rain = 0
KCH1 142038Z 19015KT 32/19 A299 RMK A01 T03190187  RH  045%=      5-min Rain = 0
KCH1 142039Z 20015KT 32/19 A299 RMK A01 T03190187  RH  045%=      5-min Rain = 0
KCH1 142040Z 19015G20KT 32/19 A299 RMK A01 T03190188  RH  046%=      5-min Rain = 0
KCH1 142041Z 18012KT 32/19 A299 RMK A01 T03190191  RH  047%=      5-min Rain = 0
KCH1 142042Z 19016KT 32/19 A299 RMK A01 T03190189  RH  046%=      5-min Rain = 0
KCH1 142043Z 18015G21KT 32/19 A299 RMK A01 T03190189  RH  046%=      5-min Rain = 0
KCH1 142044Z 19010KT 32/19 A299 RMK A01 T03180188  RH  046%=      5-min Rain = 0
KCH1 142045Z 19010KT 32/19 A299 RMK A01 T03180190  RH  047%=      5-min Rain = 0
KCH1 142046Z 19010KT 32/20 A299 RMK A01 T03190195  RH  048%=      5-min Rain = 0
KCH1 142047Z 21012G18KT 32/20 A299 RMK A01 T03230195  RH  047%=      5-min Rain = 0
KCH1 142048Z 20012G20KT 32/19 A299 RMK A01 T03230191  RH  046%=      5-min Rain = 0
KCH1 142049Z 19013G20KT 32/19 A299 RMK A01 T03230192  RH  046%=      5-min Rain = 0
KCH1 142050Z 19014G19KT 32/19 A299 RMK A01 T03240191  RH  046%=      5-min Rain = 0
KCH1 142051Z 17014KT 32/19 A2989 RMK A01 T03230191  RH  046%=      5-min Rain = 0
KCH1 142052Z 18014G19KT 32/19 A2989 RMK A01 T03220192  RH  046%=      5-min Rain = 0
KCH1 142053Z 18015KT 32/19 A2989 RMK A01 T03210190  RH  046%=      5-min Rain = 0
KCH1 142054Z 21011G17KT 32/19 A2989 RMK A01 T03210192  RH  047%=      5-min Rain = 0
KCH1 142055Z 21016G22KT 32/19 A2989 RMK A01 T03220191  RH  046%=      5-min Rain = 0
KCH1 142056Z 21014G19KT 32/19 A2989 RMK A01 T03220187  RH  045%=      5-min Rain = 0
KCH1 142057Z 20011KT 32/19 A2989 RMK A01 T03210191  RH  046%=      5-min Rain = 0
KCH1 142058Z 21010G15KT 32/19 A2989 RMK A01 T03230193  RH  046%=      5-min Rain = 0
KCH1 142059Z 20014G20KT 33/19 A2989 RMK A01 T03250191  RH  045%=      5-min Rain = 0
KCH1 142100Z 19015G20KT 32/19 A2989 RMK A01 T03240190  RH  045%=      5-min Rain = 0
KCH1 142101Z 19014KT 32/19 A2989 RMK A01 T03240191  RH  045%=      5-min Rain = 0
KCH1 142102Z 18013KT 32/19 A2989 RMK A01 T03240191  RH  045%=      5-min Rain = 0
KCH1 142103Z 19012KT 32/19 A2989 RMK A01 T03230192  RH  046%=      5-min Rain = 0
KCH1 142104Z 19015G21KT 32/19 A2989 RMK A01 T03230188  RH  045%=      5-min Rain = 0
KCH1 142105Z 19015G22KT 32/19 A2989 RMK A01 T03220189  RH  045%=      5-min Rain = 0
KCH1 142106Z 19016KT 32/19 A2989 RMK A01 T03210186  RH  045%=      5-min Rain = 0
KCH1 142107Z 19010KT 32/19 A2989 RMK A01 T03210188  RH  045%=      5-min Rain = 0
KCH1 142108Z 18009KT 32/19 A2989 RMK A01 T03210190  RH  046%=      5-min Rain = 0
KCH1 142109Z 18013G18KT 32/19 A2989 RMK A01 T03220192  RH  046%=      5-min Rain = 0
KCH1 142110Z 18013KT 32/19 A2989 RMK A01 T03230187  RH  045%=      5-min Rain = 0
KCH1 142111Z 19013G18KT 32/19 A2989 RMK A01 T03230190  RH  045%=      5-min Rain = 0
KCH1 142112Z 18013G18KT 32/19 A2989 RMK A01 T03240192  RH  046%=      5-min Rain = 0
KCH1 142113Z 19013KT 32/19 A2989 RMK A01 T03240191  RH  045%=      5-min Rain = 0
KCH1 142114Z 19013KT 32/19 A2989 RMK A01 T03240191  RH  045%=      5-min Rain = 0
KCH1 142115Z 19013KT 32/19 A2989 RMK A01 T03240190  RH  045%=      5-min Rain = 0
KCH1 142116Z 18011G19KT 32/19 A2989 RMK A01 T03240192  RH  046%=      5-min Rain = 0
KCH1 142117Z 18015KT 32/19 A2989 RMK A01 T03240192  RH  046%=      5-min Rain = 0
KCH1 142118Z 18015G20KT 33/19 A2989 RMK A01 T03250189  RH  045%=      5-min Rain = 0
KCH1 142119Z 19011KT 32/19 A2989 RMK A01 T03240190  RH  045%=      5-min Rain = 0
KCH1 142120Z 19016KT 32/19 A2989 RMK A01 T03240189  RH  045%=      5-min Rain = 0
KCH1 142121Z 18015G22KT 32/19 A2989 RMK A01 T03230188  RH  045%=      5-min Rain = 0
KCH1 142122Z 18016KT 32/19 A2989 RMK A01 T03220189  RH  045%=      5-min Rain = 0
KCH1 142123Z 20012G17KT 32/19 A2989 RMK A01 T03220189  RH  046%=      5-min Rain = 0
KCH1 142124Z 20014KT 32/19 A2989 RMK A01 T03220189  RH  045%=      5-min Rain = 0
KCH1 142125Z 19015G20KT 32/19 A2989 RMK A01 T03220187  RH  045%=      5-min Rain = 0
KCH1 142126Z 19017KT 32/19 A2989 RMK A01 T03230188  RH  045%=      5-min Rain = 0
KCH1 142127Z 18011G16KT 32/19 A2989 RMK A01 T03220191  RH  046%=      5-min Rain = 0
KCH1 142128Z 19012KT 32/19 A2989 RMK A01 T03230192  RH  046%=      5-min Rain = 0
KCH1 142129Z 20010G16KT 33/19 A2989 RMK A01 T03250194  RH  046%=      5-min Rain = 0
KCH1 142130Z 20014KT 33/19 A2989 RMK A01 T03260187  RH  044%=      5-min Rain = 0
KCH1 142131Z 20015KT 33/19 A2988 RMK A01 T03250186  RH  044%=      5-min Rain = 0
KCH1 142132Z 21013G20KT 33/19 A2989 RMK A01 T03250188  RH  044%=      5-min Rain = 0
KCH1 142133Z 21015G21KT 33/19 A2989 RMK A01 T03250186  RH  044%=      5-min Rain = 0
KCH1 142134Z 20013KT 33/19 A2989 RMK A01 T03250189  RH  044%=      5-min Rain = 0
KCH1 142135Z 21014KT 33/19 A2989 RMK A01 T03250188  RH  044%=      5-min Rain = 0
KCH1 142136Z 21016KT 32/19 A2988 RMK A01 T03240187  RH  044%=      5-min Rain = 0
KCH1 142137Z 20012KT 32/19 A2988 RMK A01 T03230188  RH  045%=      5-min Rain = 0
KCH1 142138Z 19010KT 32/19 A2988 RMK A01 T03230191  RH  046%=      5-min Rain = 0
KCH1 142139Z 18017KT 32/19 A2988 RMK A01 T03240190  RH  045%=      5-min Rain = 0
KCH1 142140Z 18014KT 32/19 A2988 RMK A01 T03240191  RH  045%=      5-min Rain = 0
KCH1 142141Z 19015KT 32/19 A2988 RMK A01 T03240189  RH  045%=      5-min Rain = 0
KCH1 142142Z 20015KT 32/19 A2988 RMK A01 T03240189  RH  045%=      5-min Rain = 0
KCH1 142143Z 20013KT 33/19 A2988 RMK A01 T03250188  RH  044%=      5-min Rain = 0
KCH1 142144Z 21014G22KT 33/19 A2988 RMK A01 T03250188  RH  044%=      5-min Rain = 0
KCH1 142145Z 20016KT 33/19 A2988 RMK A01 T03250186  RH  044%=      5-min Rain = 0
KCH1 142146Z 20015G21KT 33/19 A2988 RMK A01 T03250185  RH  044%=      5-min Rain = 0
KCH1 142147Z 19018KT 32/18 A2988 RMK A01 T03240183  RH  043%=      5-min Rain = 0
KCH1 142148Z 19015KT 32/18 A2988 RMK A01 T03230182  RH  043%=      5-min Rain = 0
KCH1 142149Z 19016G22KT 32/18 A2988 RMK A01 T03230184  RH  044%=      5-min Rain = 0
KCH1 142150Z 19012G18KT 32/19 A2988 RMK A01 T03220185  RH  044%=      5-min Rain = 0
KCH1 142151Z 20011KT 32/19 A2988 RMK A01 T03220188  RH  045%=      5-min Rain = 0
KCH1 142152Z 20013G20KT 32/19 A2988 RMK A01 T03230189  RH  045%=      5-min Rain = 0
KCH1 142153Z 20015G22KT 32/19 A2988 RMK A01 T03240189  RH  045%=      5-min Rain = 0
KCH1 142154Z 20014G22KT 33/19 A2988 RMK A01 T03250186  RH  044%=      5-min Rain = 0
KCH1 142155Z 20016G22KT 33/19 A2987 RMK A01 T03250185  RH  044%=      5-min Rain = 0
KCH1 142156Z 20014G19KT 32/18 A2987 RMK A01 T03240184  RH  043%=      5-min Rain = 0
KCH1 142157Z 19014G20KT 32/19 A2987 RMK A01 T03240185  RH  044%=      5-min Rain = 0
KCH1 142158Z 19019KT 32/19 A2987 RMK A01 T03240185  RH  044%=      5-min Rain = 0
KCH1 142159Z 19017G23KT 32/19 A2987 RMK A01 T03230185  RH  044%=      5-min Rain = 0
KCH1 142200Z 19013G18KT 32/19 A2987 RMK A01 T03220189  RH  045%=      5-min Rain = 0
KCH1 142201Z 19017G22KT 32/19 A2987 RMK A01 T03230189  RH  045%=      5-min Rain = 0
KCH1 142202Z 19016KT 32/19 A2987 RMK A01 T03230187  RH  045%=      5-min Rain = 0
KCH1 142203Z 18014KT 32/19 A2987 RMK A01 T03230188  RH  045%=      5-min Rain = 0
KCH1 142204Z 20013G19KT 32/19 A2987 RMK A01 T03220190  RH  046%=      5-min Rain = 0
KCH1 142205Z 20014KT 32/19 A2987 RMK A01 T03220189  RH  045%=      5-min Rain = 0
KCH1 142206Z 21009G18KT 32/19 A2987 RMK A01 T03230191  RH  046%=      5-min Rain = 0
KCH1 142207Z 20016G21KT 32/19 A2987 RMK A01 T03240191  RH  046%=      5-min Rain = 0
KCH1 142208Z 20015KT 32/19 A2987 RMK A01 T03240190  RH  045%=      5-min Rain = 0
KCH1 142209Z 19011G16KT 32/19 A2987 RMK A01 T03240193  RH  046%=      5-min Rain = 0
KCH1 142210Z 20012G18KT 32/19 A2987 RMK A01 T03240193  RH  046%=      5-min Rain = 0
KCH1 142211Z 20015KT 33/19 A2986 RMK A01 T03250192  RH  045%=      5-min Rain = 0
KCH1 142212Z 19013G22KT 33/19 A2986 RMK A01 T03250193  RH  046%=      5-min Rain = 0
KCH1 142213Z 19016G21KT 33/19 A2986 RMK A01 T03250190  RH  045%=      5-min Rain = 0
KCH1 142214Z 21016G24KT 33/19 A2986 RMK A01 T03250189  RH  045%=      5-min Rain = 0
KCH1 142215Z 19013G18KT 32/19 A2986 RMK A01 T03240188  RH  044%=      5-min Rain = 0
KCH1 142216Z 20011KT 32/19 A2986 RMK A01 T03240192  RH  045%=      5-min Rain = 0
KCH1 142217Z 20015G21KT 32/19 A2986 RMK A01 T03240190  RH  045%=      5-min Rain = 0
KCH1 142218Z 20014G19KT 32/19 A2986 RMK A01 T03240189  RH  045%=      5-min Rain = 0
KCH1 142219Z 19012KT 32/19 A2986 RMK A01 T03240190  RH  045%=      5-min Rain = 0
KCH1 142220Z 19011KT 32/19 A2986 RMK A01 T03240193  RH  046%=      5-min Rain = 0
KCH1 142221Z 17013G19KT 33/20 A2986 RMK A01 T03250195  RH  046%=      5-min Rain = 0
KCH1 142222Z 18014KT 33/19 A2986 RMK A01 T03250191  RH  045%=      5-min Rain = 0
KCH1 142223Z 19016KT 32/19 A2986 RMK A01 T03240190  RH  045%=      5-min Rain = 0
KCH1 142224Z 19016KT 32/19 A2986 RMK A01 T03230188  RH  045%=      5-min Rain = 0
KCH1 142225Z 19012KT 32/19 A2986 RMK A01 T03220191  RH  046%=      5-min Rain = 0
KCH1 142226Z 20015G21KT 32/19 A2986 RMK A01 T03230191  RH  046%=      5-min Rain = 0
KCH1 142227Z 21015G21KT 32/19 A2986 RMK A01 T03230190  RH  045%=      5-min Rain = 0
KCH1 142228Z 19012G17KT 32/19 A2986 RMK A01 T03230193  RH  046%=      5-min Rain = 0
KCH1 142229Z 18013G18KT 32/19 A2986 RMK A01 T03240193  RH  046%=      5-min Rain = 0
KCH1 142230Z 18016KT 32/19 A2986 RMK A01 T03240192  RH  046%=      5-min Rain = 0
KCH1 142231Z 18014KT 32/19 A2986 RMK A01 T03240193  RH  046%=      5-min Rain = 0
KCH1 142232Z 18013KT 32/19 A2986 RMK A01 T03240191  RH  045%=      5-min Rain = 0
KCH1 142233Z 18016G22KT 32/19 A2986 RMK A01 T03240190  RH  045%=      5-min Rain = 0
KCH1 142234Z 19013KT 32/19 A2986 RMK A01 T03230191  RH  046%=      5-min Rain = 0
KCH1 142235Z 20011KT 32/19 A2986 RMK A01 T03230192  RH  046%=      5-min Rain = 0
KCH1 142236Z 20013KT 32/19 A2986 RMK A01 T03240192  RH  046%=      5-min Rain = 0
KCH1 142237Z 19012KT 33/19 A2986 RMK A01 T03250190  RH  045%=      5-min Rain = 0
KCH1 142238Z 20010G15KT 33/19 A2986 RMK A01 T03250192  RH  045%=      5-min Rain = 0
KCH1 142239Z 20011G16KT 33/19 A2986 RMK A01 T03250193  RH  046%=      5-min Rain = 0
KCH1 142240Z 20012KT 33/19 A2986 RMK A01 T03260190  RH  045%=      5-min Rain = 0
KCH1 142241Z 20009KT 33/19 A2986 RMK A01 T03250192  RH  046%=      5-min Rain = 0
KCH1 142242Z 20009KT 33/19 A2986 RMK A01 T03250194  RH  046%=      5-min Rain = 0
KCH1 142243Z 20008KT 33/20 A2986 RMK A01 T03260197  RH  046%=      5-min Rain = 0
KCH1 142244Z 19012KT 33/19 A2985 RMK A01 T03270193  RH  045%=      5-min Rain = 0
KCH1 142245Z 19016G21KT 33/19 A2986 RMK A01 T03270190  RH  045%=      5-min Rain = 0
KCH1 142246Z 20013KT 33/19 A2985 RMK A01 T03260188  RH  044%=      5-min Rain = 0
KCH1 142247Z 20012G17KT 33/19 A2985 RMK A01 T03250189  RH  044%=      5-min Rain = 0
KCH1 142248Z 18013KT 33/19 A2985 RMK A01 T03250189  RH  045%=      5-min Rain = 0
KCH1 142249Z 19012KT 32/19 A2985 RMK A01 T03240190  RH  045%=      5-min Rain = 0
KCH1 142250Z 20012KT 32/19 A2985 RMK A01 T03240190  RH  045%=      5-min Rain = 0
KCH1 142251Z 20011KT 32/19 A2985 RMK A01 T03240190  RH  045%=      5-min Rain = 0
KCH1 142252Z 20010KT 32/19 A2985 RMK A01 T03240192  RH  046%=      5-min Rain = 0
KCH1 142253Z 20011G16KT 32/19 A2985 RMK A01 T03240192  RH  046%=      5-min Rain = 0
KCH1 142254Z 21012G17KT 32/19 A2985 RMK A01 T03240190  RH  045%=      5-min Rain = 0
KCH1 142255Z 21014G19KT 32/19 A2985 RMK A01 T03240190  RH  045%=      5-min Rain = 0
KCH1 142256Z 20016KT 32/19 A2985 RMK A01 T03240188  RH  044%=      5-min Rain = 0
KCH1 142257Z 20014KT 32/19 A2985 RMK A01 T03240188  RH  044%=      5-min Rain = 0
KCH1 142258Z 19010G16KT 32/19 A2985 RMK A01 T03240191  RH  045%=      5-min Rain = 0
KCH1 142259Z 18009G15KT 32/20 A2985 RMK A01 T03240195  RH  047%=      5-min Rain = 0
KCH1 142300Z 18016KT 33/19 A2985 RMK A01 T03250187  RH  044%=      5-min Rain = 0
KCH1 142301Z 19011KT 32/19 A2985 RMK A01 T03240188  RH  044%=      5-min Rain = 0
KCH1 142302Z 19012G19KT 32/19 A2985 RMK A01 T03240190  RH  045%=      5-min Rain = 0
KCH1 142303Z 19012KT 32/19 A2985 RMK A01 T03240189  RH  045%=      5-min Rain = 0
KCH1 142304Z 20011KT 32/19 A2985 RMK A01 T03240190  RH  045%=      5-min Rain = 0
KCH1 142305Z 20012KT 32/19 A2985 RMK A01 T03240188  RH  044%=      5-min Rain = 0
KCH1 142306Z 20014G22KT 32/19 A2985 RMK A01 T03240187  RH  044%=      5-min Rain = 0
KCH1 142307Z 20015G21KT 32/19 A2985 RMK A01 T03230185  RH  044%=      5-min Rain = 0
KCH1 142308Z 20011KT 32/19 A2985 RMK A01 T03230188  RH  045%=      5-min Rain = 0
KCH1 142309Z 20011KT 32/19 A2985 RMK A01 T03220189  RH  045%=      5-min Rain = 0
KCH1 142310Z 20011G19KT 32/19 A2985 RMK A01 T03230190  RH  045%=      5-min Rain = 0
KCH1 142311Z 21014G21KT 32/19 A2985 RMK A01 T03230188  RH  045%=      5-min Rain = 0
KCH1 142312Z 20014KT 32/19 A2985 RMK A01 T03230186  RH  044%=      5-min Rain = 0
KCH1 142313Z 20014G19KT 32/19 A2985 RMK A01 T03230186  RH  044%=      5-min Rain = 0
KCH1 142314Z 21012KT 32/19 A2985 RMK A01 T03230187  RH  045%=      5-min Rain = 0
KCH1 142315Z 21010KT 32/19 A2985 RMK A01 T03230189  RH  045%=      5-min Rain = 0
KCH1 142316Z 19010G15KT 32/19 A2985 RMK A01 T03230192  RH  046%=      5-min Rain = 0
KCH1 142317Z 19013KT 32/19 A2985 RMK A01 T03240190  RH  045%=      5-min Rain = 0
KCH1 142318Z 19011KT 32/19 A2985 RMK A01 T03240189  RH  045%=      5-min Rain = 0
KCH1 142319Z 19011KT 32/19 A2985 RMK A01 T03240191  RH  045%=      5-min Rain = 0
KCH1 142320Z 20008G13KT 32/19 A2985 RMK A01 T03240190  RH  045%=      5-min Rain = 0
KCH1 142321Z 20013KT 32/19 A2985 RMK A01 T03240190  RH  045%=      5-min Rain = 0
KCH1 142322Z 20013KT 32/19 A2985 RMK A01 T03240188  RH  045%=      5-min Rain = 0
KCH1 142323Z 20012G17KT 32/19 A2985 RMK A01 T03240189  RH  045%=      5-min Rain = 0
KCH1 142324Z 20011G16KT 32/19 A2985 RMK A01 T03240188  RH  045%=      5-min Rain = 0
KCH1 142325Z 21010G15KT 32/19 A2985 RMK A01 T03230190  RH  045%=      5-min Rain = 0
KCH1 142326Z 19012KT 32/19 A2985 RMK A01 T03230190  RH  045%=      5-min Rain = 0
KCH1 142327Z 18015KT 32/19 A2985 RMK A01 T03230190  RH  045%=      5-min Rain = 0
KCH1 142328Z 19014KT 32/19 A2985 RMK A01 T03230187  RH  045%=      5-min Rain = 0
KCH1 142329Z 19012G17KT 32/19 A2985 RMK A01 T03230187  RH  045%=      5-min Rain = 0
KCH1 142330Z 19012G17KT 32/19 A2985 RMK A01 T03230186  RH  044%=      5-min Rain = 0
KCH1 142331Z 19014KT 32/19 A2984 RMK A01 T03230186  RH  044%=      5-min Rain = 0
KCH1 142332Z 20012G20KT 32/19 A2984 RMK A01 T03220185  RH  044%=      5-min Rain = 0
KCH1 142333Z 20009G15KT 32/19 A2985 RMK A01 T03230187  RH  045%=      5-min Rain = 0
KCH1 142334Z 20013G20KT 32/19 A2985 RMK A01 T03220185  RH  044%=      5-min Rain = 0
KCH1 142335Z 19013KT 32/18 A2985 RMK A01 T03220183  RH  044%=      5-min Rain = 0
KCH1 142336Z 19011KT 32/19 A2985 RMK A01 T03220185  RH  044%=      5-min Rain = 0
KCH1 142337Z 18009G14KT 32/19 A2985 RMK A01 T03220188  RH  045%=      5-min Rain = 0
KCH1 142338Z 19008KT 32/19 A2985 RMK A01 T03220188  RH  045%=      5-min Rain = 0
KCH1 142339Z 19010KT 32/19 A2985 RMK A01 T03220187  RH  045%=      5-min Rain = 0
KCH1 142340Z 19011KT 32/19 A2985 RMK A01 T03220188  RH  045%=      5-min Rain = 0
KCH1 142341Z 19012KT 32/19 A2985 RMK A01 T03220189  RH  045%=      5-min Rain = 0
KCH1 142342Z 19015KT 32/19 A2985 RMK A01 T03210185  RH  044%=      5-min Rain = 0
KCH1 142343Z 19012G17KT 32/18 A2985 RMK A01 T03210184  RH  044%=      5-min Rain = 0
KCH1 142344Z 19013G19KT 32/19 A2985 RMK A01 T03210185  RH  045%=      5-min Rain = 0
KCH1 142345Z 20013G20KT 32/18 A2984 RMK A01 T03210183  RH  044%=      5-min Rain = 0
KCH1 142346Z 20017KT 32/18 A2984 RMK A01 T03210182  RH  044%=      5-min Rain = 0
KCH1 142347Z 20011G16KT 32/18 A2985 RMK A01 T03200182  RH  044%=      5-min Rain = 0
KCH1 142348Z 20008KT 32/19 A2985 RMK A01 T03200186  RH  045%=      5-min Rain = 0
KCH1 142349Z 20013G19KT 32/19 A2984 RMK A01 T03200186  RH  045%=      5-min Rain = 0
KCH1 142350Z 20016KT 32/18 A2984 RMK A01 T03200183  RH  044%=      5-min Rain = 0
KCH1 142351Z 20016KT 32/18 A2984 RMK A01 T03200183  RH  044%=      5-min Rain = 0
KCH1 142352Z 19012KT 32/18 A2984 RMK A01 T03190184  RH  045%=      5-min Rain = 0
KCH1 142353Z 18012KT 32/19 A2984 RMK A01 T03190186  RH  045%=      5-min Rain = 0
KCH1 142354Z 18013KT 32/19 A2984 RMK A01 T03190186  RH  045%=      5-min Rain = 0
KCH1 142355Z 19012G20KT 32/19 A2984 RMK A01 T03190187  RH  046%=      5-min Rain = 0
KCH1 142356Z 19013KT 32/19 A2984 RMK A01 T03180186  RH  045%=      5-min Rain = 0
KCH1 142357Z 19012G17KT 32/19 A2984 RMK A01 T03180188  RH  046%=      5-min Rain = 0
KCH1 142358Z 20011G16KT 32/19 A2984 RMK A01 T03180186  RH  046%=      5-min Rain = 0
KCH1 142359Z 19013KT 32/19 A2984 RMK A01 T03180187  RH  046%=      5-min Rain = 0
KCH1 150000Z 20011KT 32/19 A2984 RMK A01 T03180189  RH  046%=      5-min Rain = 0
KCH1 150001Z 20011KT 32/19 A2984 RMK A01 T03180189  RH  046%=      5-min Rain = 0
KCH1 150002Z 20012KT 32/19 A2984 RMK A01 T03170189  RH  047%=      5-min Rain = 0
KCH1 150003Z 19015G20KT 32/19 A2984 RMK A01 T03160187  RH  046%=      5-min Rain = 0
KCH1 150004Z 20013G18KT 32/18 A2984 RMK A01 T03150184  RH  046%=      5-min Rain = 0
KCH1 150005Z 19016KT 32/19 A2984 RMK A01 T03150185  RH  046%=      5-min Rain = 0
KCH1 150006Z 19012KT 32/19 A2984 RMK A01 T03150185  RH  046%=      5-min Rain = 0
KCH1 150007Z 19014KT 31/19 A2984 RMK A01 T03140185  RH  046%=      5-min Rain = 0
KCH1 150008Z 19010KT 31/19 A2984 RMK A01 T03130187  RH  047%=      5-min Rain = 0
KCH1 150009Z 19009G16KT 31/19 A2984 RMK A01 T03120187  RH  047%=      5-min Rain = 0
KCH1 150010Z 19013KT 31/19 A2984 RMK A01 T03120186  RH  047%=      5-min Rain = 0
KCH1 150011Z 19011G17KT 31/19 A2984 RMK A01 T03120185  RH  047%=      5-min Rain = 0
KCH1 150012Z 19012KT 31/18 A2984 RMK A01 T03110184  RH  047%=      5-min Rain = 0
KCH1 150013Z 18013G18KT 31/18 A2984 RMK A01 T03110183  RH  047%=      5-min Rain = 0
KCH1 150014Z 19012KT 31/18 A2984 RMK A01 T03110183  RH  047%=      5-min Rain = 0
KCH1 150015Z 20010KT 31/18 A2984 RMK A01 T03110184  RH  047%=      5-min Rain = 0
KCH1 150016Z 20012KT 31/18 A2984 RMK A01 T03100184  RH  047%=      5-min Rain = 0
KCH1 150017Z 19011KT 31/18 A2984 RMK A01 T03110184  RH  047%=      5-min Rain = 0
KCH1 150018Z 19011G16KT 31/18 A2984 RMK A01 T03110184  RH  047%=      5-min Rain = 0
KCH1 150019Z 19010G16KT 31/18 A2984 RMK A01 T03100184  RH  047%=      5-min Rain = 0
KCH1 150020Z 19012G17KT 31/18 A2984 RMK A01 T03100183  RH  047%=      5-min Rain = 0
KCH1 150021Z 19012KT 31/18 A2984 RMK A01 T03100183  RH  047%=      5-min Rain = 0
KCH1 150022Z 20009KT 31/18 A2984 RMK A01 T03090184  RH  047%=      5-min Rain = 0
KCH1 150023Z 20009G14KT 31/18 A2984 RMK A01 T03090184  RH  047%=      5-min Rain = 0
KCH1 150024Z 19012KT 31/18 A2984 RMK A01 T03080184  RH  047%=      5-min Rain = 0
KCH1 150025Z 20014KT 31/18 A2984 RMK A01 T03080183  RH  047%=      5-min Rain = 0
KCH1 150026Z 19010KT 31/18 A2984 RMK A01 T03080183  RH  047%=      5-min Rain = 0
KCH1 150027Z 19009KT 31/18 A2984 RMK A01 T03080184  RH  047%=      5-min Rain = 0
KCH1 150028Z 20007KT 31/18 A2984 RMK A01 T03080184  RH  048%=      5-min Rain = 0
KCH1 150029Z 19008KT 31/18 A2984 RMK A01 T03070184  RH  048%=      5-min Rain = 0
KCH1 150030Z 19010KT 31/19 A2984 RMK A01 T03070185  RH  048%=      5-min Rain = 0
KCH1 150031Z 19009KT 31/19 A2984 RMK A01 T03060185  RH  048%=      5-min Rain = 0
KCH1 150032Z 18008KT 31/19 A2984 RMK A01 T03060185  RH  048%=      5-min Rain = 0
KCH1 150033Z 18007KT 31/19 A2984 RMK A01 T03060187  RH  049%=      5-min Rain = 0
KCH1 150034Z 19008KT 31/19 A2984 RMK A01 T03050186  RH  049%=      5-min Rain = 0
KCH1 150035Z 18009KT 31/19 A2984 RMK A01 T03050187  RH  049%=      5-min Rain = 0
KCH1 150036Z 18008KT 31/19 A2984 RMK A01 T03050186  RH  049%=      5-min Rain = 0
KCH1 150037Z 20007KT 30/19 A2985 RMK A01 T03040187  RH  050%=      5-min Rain = 0
KCH1 150038Z 19008KT 31/19 A2985 RMK A01 T03050188  RH  050%=      5-min Rain = 0
KCH1 150039Z 19007KT 30/19 A2985 RMK A01 T03040188  RH  050%=      5-min Rain = 0
KCH1 150040Z 18008KT 30/19 A2985 RMK A01 T03030188  RH  050%=      5-min Rain = 0
KCH1 150041Z 19007KT 30/19 A2985 RMK A01 T03030188  RH  050%=      5-min Rain = 0
KCH1 150042Z 18008KT 30/19 A2985 RMK A01 T03030188  RH  050%=      5-min Rain = 0
KCH1 150043Z 19007KT 30/19 A2985 RMK A01 T03020189  RH  051%=      5-min Rain = 0
KCH1 150044Z 18010KT 30/19 A2985 RMK A01 T03020189  RH  051%=      5-min Rain = 0
KCH1 150045Z 18010KT 30/19 A2985 RMK A01 T03010188  RH  051%=      5-min Rain = 0
KCH1 150046Z 18009KT 30/19 A2985 RMK A01 T03010189  RH  051%=      5-min Rain = 0
KCH1 150047Z 18008KT 30/19 A2985 RMK A01 T03010188  RH  051%=      5-min Rain = 0
KCH1 150048Z 18007KT 30/19 A2985 RMK A01 T03010189  RH  051%=      5-min Rain = 0
KCH1 150049Z 18009KT 30/19 A2985 RMK A01 T03010189  RH  051%=      5-min Rain = 0
KCH1 150050Z 18008KT 30/19 A2985 RMK A01 T03010188  RH  051%=      5-min Rain = 0
KCH1 150051Z 18008KT 30/19 A2985 RMK A01 T03010189  RH  051%=      5-min Rain = 0
KCH1 150052Z 19009KT 30/19 A2985 RMK A01 T03010189  RH  051%=      5-min Rain = 0
KCH1 150053Z 19008KT 30/19 A2985 RMK A01 T03010188  RH  051%=      5-min Rain = 0
KCH1 150054Z 18009KT 30/19 A2985 RMK A01 T03010189  RH  051%=      5-min Rain = 0
KCH1 150055Z 18008KT 30/19 A2985 RMK A01 T03010189  RH  051%=      5-min Rain = 0
KCH1 150056Z 18007KT 30/19 A2985 RMK A01 T03010190  RH  052%=      5-min Rain = 0
KCH1 150057Z 19007KT 30/19 A2985 RMK A01 T03000190  RH  052%=      5-min Rain = 0
KCH1 150058Z 18006KT 30/19 A2985 RMK A01 T02990189  RH  052%=      5-min Rain = 0
KCH1 150059Z 18008KT 30/19 A2985 RMK A01 T02980190  RH  052%=      5-min Rain = 0
KCH1 150100Z 19009KT 30/19 A2985 RMK A01 T02980190  RH  052%=      5-min Rain = 0
KCH1 150101Z 18009KT 30/19 A2985 RMK A01 T02970188  RH  052%=      5-min Rain = 0
KCH1 150102Z 18007KT 30/19 A2985 RMK A01 T02970188  RH  052%=      5-min Rain = 0
KCH1 150103Z 18008KT 30/19 A2985 RMK A01 T02970189  RH  052%=      5-min Rain = 0
KCH1 150104Z 19010KT 30/19 A2985 RMK A01 T02970188  RH  052%=      5-min Rain = 0
KCH1 150105Z 19006KT 30/19 A2985 RMK A01 T02960189  RH  052%=      5-min Rain = 0
KCH1 150106Z 18007KT 30/19 A2985 RMK A01 T02960189  RH  053%=      5-min Rain = 0
KCH1 150107Z 18007KT 30/19 A2986 RMK A01 T02950188  RH  053%=      5-min Rain = 0
KCH1 150108Z 19008KT 30/19 A2986 RMK A01 T02950189  RH  053%=      5-min Rain = 0
KCH1 150109Z 19007KT 30/19 A2986 RMK A01 T02950189  RH  053%=      5-min Rain = 0
KCH1 150110Z 18008KT 29/19 A2986 RMK A01 T02940189  RH  053%=      5-min Rain = 0
KCH1 150111Z 18008KT 29/19 A2986 RMK A01 T02940189  RH  053%=      5-min Rain = 0
KCH1 150112Z 18007KT 29/19 A2986 RMK A01 T02940189  RH  053%=      5-min Rain = 0
KCH1 150113Z 19007KT 29/19 A2986 RMK A01 T02940189  RH  054%=      5-min Rain = 0
KCH1 150114Z 18006KT 29/19 A2986 RMK A01 T02930189  RH  054%=      5-min Rain = 0
KCH1 150115Z 18008KT 29/19 A2986 RMK A01 T02920189  RH  054%=      5-min Rain = 0
KCH1 150116Z 18008KT 29/19 A2986 RMK A01 T02920188  RH  053%=      5-min Rain = 0
KCH1 150117Z 19006KT 29/19 A2986 RMK A01 T02920188  RH  054%=      5-min Rain = 0
KCH1 150118Z 19005KT 29/19 A2986 RMK A01 T02920190  RH  054%=      5-min Rain = 0
KCH1 150119Z 18007KT 29/19 A2986 RMK A01 T02910190  RH  054%=      5-min Rain = 0
KCH1 150120Z 18007KT 29/19 A2986 RMK A01 T02900188  RH  054%=      5-min Rain = 0
KCH1 150121Z 18007KT 29/19 A2986 RMK A01 T02900189  RH  054%=      5-min Rain = 0
KCH1 150122Z 18007KT 29/19 A2986 RMK A01 T02900190  RH  055%=      5-min Rain = 0
KCH1 150123Z 18008KT 29/19 A2986 RMK A01 T02900189  RH  055%=      5-min Rain = 0
KCH1 150124Z 18009KT 29/19 A2986 RMK A01 T02890188  RH  054%=      5-min Rain = 0
KCH1 150125Z 18008KT 29/19 A2986 RMK A01 T02890188  RH  054%=      5-min Rain = 0
KCH1 150126Z 18006KT 29/19 A2986 RMK A01 T02890189  RH  055%=      5-min Rain = 0
KCH1 150127Z 18006KT 29/19 A2986 RMK A01 T02880188  RH  055%=      5-min Rain = 0
KCH1 150128Z 18006KT 29/19 A2986 RMK A01 T02880188  RH  055%=      5-min Rain = 0
KCH1 150129Z 18008KT 29/19 A2986 RMK A01 T02880188  RH  055%=      5-min Rain = 0
KCH1 150130Z 18007KT 29/19 A2986 RMK A01 T02880188  RH  055%=      5-min Rain = 0
KCH1 150131Z 18008KT 29/19 A2986 RMK A01 T02880188  RH  055%=      5-min Rain = 0
KCH1 150132Z 18007KT 29/19 A2986 RMK A01 T02880188  RH  055%=      5-min Rain = 0
KCH1 150133Z 18007KT 29/19 A2985 RMK A01 T02880188  RH  055%=      5-min Rain = 0
KCH1 150134Z 18006KT 29/19 A2986 RMK A01 T02870188  RH  055%=      5-min Rain = 0
KCH1 150135Z 18007KT 29/19 A2985 RMK A01 T02860188  RH  055%=      5-min Rain = 0
KCH1 150136Z 18008KT 29/19 A2985 RMK A01 T02860188  RH  055%=      5-min Rain = 0
KCH1 150137Z 18007KT 29/19 A2985 RMK A01 T02850187  RH  055%=      5-min Rain = 0
KCH1 150138Z 18007KT 29/19 A2985 RMK A01 T02850188  RH  055%=      5-min Rain = 0
KCH1 150139Z 18006KT 29/19 A2985 RMK A01 T02850188  RH  056%=      5-min Rain = 0
KCH1 150140Z 18007KT 28/19 A2985 RMK A01 T02840187  RH  056%=      5-min Rain = 0
KCH1 150141Z 17007KT 28/19 A2985 RMK A01 T02840187  RH  056%=      5-min Rain = 0
KCH1 150142Z 17007KT 28/19 A2985 RMK A01 T02840187  RH  056%=      5-min Rain = 0
KCH1 150143Z 18007KT 28/19 A2986 RMK A01 T02830187  RH  056%=      5-min Rain = 0
KCH1 150144Z 18008KT 28/19 A2986 RMK A01 T02830187  RH  056%=      5-min Rain = 0
KCH1 150145Z 18010KT 28/19 A2986 RMK A01 T02820185  RH  056%=      5-min Rain = 0
KCH1 150146Z 18007KT 28/19 A2986 RMK A01 T02830185  RH  055%=      5-min Rain = 0
KCH1 150147Z 18008KT 28/19 A2986 RMK A01 T02830186  RH  055%=      5-min Rain = 0
KCH1 150148Z 18007KT 28/19 A2986 RMK A01 T02830186  RH  056%=      5-min Rain = 0
KCH1 150149Z 18008KT 28/19 A2986 RMK A01 T02820185  RH  056%=      5-min Rain = 0
KCH1 150150Z 18008KT 28/19 A2986 RMK A01 T02820185  RH  056%=      5-min Rain = 0
KCH1 150151Z 17009KT 28/18 A2985 RMK A01 T02820184  RH  055%=      5-min Rain = 0
KCH1 150152Z 18008KT 28/18 A2986 RMK A01 T02820184  RH  055%=      5-min Rain = 0
KCH1 150153Z 18009KT 28/19 A2986 RMK A01 T02820185  RH  056%=      5-min Rain = 0
KCH1 150154Z 18009KT 28/18 A2986 RMK A01 T02820184  RH  055%=      5-min Rain = 0
KCH1 150155Z 17009KT 28/18 A2986 RMK A01 T02820184  RH  055%=      5-min Rain = 0
KCH1 150156Z 18010G15KT 28/18 A2986 RMK A01 T02820184  RH  055%=      5-min Rain = 0
KCH1 150157Z 18010KT 28/18 A2986 RMK A01 T02820183  RH  055%=      5-min Rain = 0
KCH1 150158Z 18007KT 28/18 A2986 RMK A01 T02820184  RH  055%=      5-min Rain = 0
KCH1 150159Z 18008KT 28/18 A2986 RMK A01 T02820184  RH  055%=      5-min Rain = 0
KCH1 150200Z 18010KT 28/18 A2985 RMK A01 T02820184  RH  055%=      5-min Rain = 0
KCH1 150201Z 18010KT 28/18 A2985 RMK A01 T02820183  RH  055%=      5-min Rain = 0
KCH1 150202Z 18010KT 28/18 A2985 RMK A01 T02820184  RH  055%=      5-min Rain = 0
KCH1 150203Z 18009KT 28/18 A2985 RMK A01 T02820184  RH  055%=      5-min Rain = 0
KCH1 150204Z 18010KT 28/19 A2985 RMK A01 T02810185  RH  056%=      5-min Rain = 0
KCH1 150205Z 18011KT 28/18 A2985 RMK A01 T02810184  RH  056%=      5-min Rain = 0
KCH1 150206Z 18010KT 28/18 A2985 RMK A01 T02810183  RH  056%=      5-min Rain = 0
KCH1 150207Z 18012KT 28/18 A2985 RMK A01 T02810183  RH  055%=      5-min Rain = 0
KCH1 150208Z 18009KT 28/18 A2985 RMK A01 T02820184  RH  055%=      5-min Rain = 0
KCH1 150209Z 17010KT 28/18 A2985 RMK A01 T02810184  RH  055%=      5-min Rain = 0
KCH1 150210Z 18009KT 28/18 A2985 RMK A01 T02810184  RH  055%=      5-min Rain = 0
KCH1 150211Z 17011KT 28/18 A2985 RMK A01 T02810184  RH  056%=      5-min Rain = 0
KCH1 150212Z 18009KT 28/18 A2985 RMK A01 T02810183  RH  055%=      5-min Rain = 0
KCH1 150213Z 17011KT 28/18 A2985 RMK A01 T02810184  RH  055%=      5-min Rain = 0
KCH1 150214Z 17009G14KT 28/18 A2985 RMK A01 T02810184  RH  056%=      5-min Rain = 0
KCH1 150215Z 18010KT 28/18 A2985 RMK A01 T02810183  RH  055%=      5-min Rain = 0
KCH1 150216Z 18007KT 28/18 A2985 RMK A01 T02810184  RH  056%=      5-min Rain = 0
KCH1 150217Z 18010KT 28/18 A2985 RMK A01 T02800184  RH  056%=      5-min Rain = 0
KCH1 150218Z 18011KT 28/18 A2986 RMK A01 T02800183  RH  056%=      5-min Rain = 0
KCH1 150219Z 18008KT 28/18 A2986 RMK A01 T02800183  RH  056%=      5-min Rain = 0
KCH1 150220Z 19008KT 28/18 A2986 RMK A01 T02800184  RH  056%=      5-min Rain = 0
KCH1 150221Z 18010KT 28/18 A2986 RMK A01 T02790183  RH  056%=      5-min Rain = 0
KCH1 150222Z 18010KT 28/18 A2986 RMK A01 T02790183  RH  056%=      5-min Rain = 0
KCH1 150223Z 18009KT 28/18 A2986 RMK A01 T02790183  RH  056%=      5-min Rain = 0
KCH1 150224Z 18010G15KT 28/18 A2986 RMK A01 T02790182  RH  055%=      5-min Rain = 0
KCH1 150225Z 18007KT 28/18 A2986 RMK A01 T02800182  RH  055%=      5-min Rain = 0
KCH1 150226Z 18009KT 28/18 A2986 RMK A01 T02800183  RH  056%=      5-min Rain = 0
KCH1 150227Z 17007KT 28/18 A2986 RMK A01 T02800183  RH  056%=      5-min Rain = 0
KCH1 150228Z 18007KT 28/18 A2986 RMK A01 T02790183  RH  056%=      5-min Rain = 0
KCH1 150229Z 18008KT 28/18 A2986 RMK A01 T02790183  RH  056%=      5-min Rain = 0
KCH1 150230Z 17008KT 28/18 A2986 RMK A01 T02790183  RH  056%=      5-min Rain = 0
KCH1 150231Z 18007KT 28/18 A2986 RMK A01 T02790183  RH  056%=      5-min Rain = 0
KCH1 150232Z 17008KT 28/18 A2986 RMK A01 T02780183  RH  056%=      5-min Rain = 0
KCH1 150233Z 17008KT 28/18 A2986 RMK A01 T02770183  RH  056%=      5-min Rain = 0
KCH1 150234Z 17009KT 28/18 A2986 RMK A01 T02770183  RH  056%=      5-min Rain = 0
KCH1 150235Z 18008KT 28/18 A2986 RMK A01 T02770183  RH  057%=      5-min Rain = 0
KCH1 150236Z 17006KT 28/18 A2986 RMK A01 T02760183  RH  057%=      5-min Rain = 0
KCH1 150237Z 17007KT 28/18 A2986 RMK A01 T02760183  RH  057%=      5-min Rain = 0
KCH1 150238Z 16007KT 28/18 A2986 RMK A01 T02760183  RH  057%=      5-min Rain = 0
KCH1 150239Z 17006KT 28/18 A2986 RMK A01 T02750184  RH  057%=      5-min Rain = 0
KCH1 150240Z 16006KT 27/18 A2986 RMK A01 T02740184  RH  058%=      5-min Rain = 0
KCH1 150241Z 16007KT 27/18 A2986 RMK A01 T02730184  RH  058%=      5-min Rain = 0
KCH1 150242Z 17007KT 27/18 A2986 RMK A01 T02730184  RH  058%=      5-min Rain = 0
KCH1 150243Z 17006KT 27/19 A2986 RMK A01 T02720185  RH  059%=      5-min Rain = 0
KCH1 150244Z 16008KT 27/19 A2986 RMK A01 T02710185  RH  059%=      5-min Rain = 0
KCH1 150245Z 16008KT 27/19 A2986 RMK A01 T02710185  RH  059%=      5-min Rain = 0
KCH1 150246Z 17008KT 27/19 A2986 RMK A01 T02710185  RH  059%=      5-min Rain = 0
KCH1 150247Z 17007KT 27/19 A2986 RMK A01 T02710185  RH  059%=      5-min Rain = 0
KCH1 150248Z 17007KT 27/19 A2987 RMK A01 T02700185  RH  060%=      5-min Rain = 0
KCH1 150249Z 17008KT 27/19 A2987 RMK A01 T02700186  RH  060%=      5-min Rain = 0
KCH1 150250Z 17006KT 27/19 A2987 RMK A01 T02690186  RH  060%=      5-min Rain = 0
KCH1 150251Z 17008KT 27/19 A2987 RMK A01 T02690186  RH  060%=      5-min Rain = 0
KCH1 150252Z 17007KT 27/19 A2987 RMK A01 T02690186  RH  060%=      5-min Rain = 0
KCH1 150253Z 17008KT 27/19 A2987 RMK A01 T02690186  RH  061%=      5-min Rain = 0
KCH1 150254Z 17009KT 27/19 A2987 RMK A01 T02680185  RH  060%=      5-min Rain = 0
KCH1 150255Z 17008KT 27/19 A2987 RMK A01 T02690185  RH  060%=      5-min Rain = 0
KCH1 150256Z 17007KT 27/19 A2987 RMK A01 T02690186  RH  060%=      5-min Rain = 0
KCH1 150257Z 17007KT 27/19 A2987 RMK A01 T02690186  RH  061%=      5-min Rain = 0
KCH1 150258Z 17008KT 27/19 A2987 RMK A01 T02680186  RH  061%=      5-min Rain = 0
KCH1 150259Z 17008KT 27/19 A2987 RMK A01 T02680186  RH  061%=      5-min Rain = 0
KCH1 150300Z 17007KT 27/19 A2987 RMK A01 T02680186  RH  061%=      5-min Rain = 0
KCH1 150301Z 17007KT 27/19 A2987 RMK A01 T02680186  RH  061%=      5-min Rain = 0
KCH1 150302Z 18008G13KT 27/19 A2987 RMK A01 T02680186  RH  061%=      5-min Rain = 0
KCH1 150303Z 17007KT 27/19 A2987 RMK A01 T02680186  RH  061%=      5-min Rain = 0
KCH1 150304Z 17008KT 27/19 A2987 RMK A01 T02680186  RH  061%=      5-min Rain = 0
KCH1 150305Z 17009KT 27/19 A2987 RMK A01 T02680185  RH  061%=      5-min Rain = 0
KCH1 150306Z 17010KT 27/19 A2988 RMK A01 T02680185  RH  060%=      5-min Rain = 0
KCH1 150307Z 17009KT 27/19 A2988 RMK A01 T02680185  RH  060%=      5-min Rain = 0
KCH1 150308Z 17008KT 27/19 A2988 RMK A01 T02690185  RH  060%=      5-min Rain = 0
KCH1 150309Z 17009KT 27/19 A2988 RMK A01 T02690185  RH  060%=      5-min Rain = 0
KCH1 150310Z 17010KT 27/18 A2988 RMK A01 T02700184  RH  060%=      5-min Rain = 0
KCH1 150311Z 17010KT 27/18 A2988 RMK A01 T02700184  RH  059%=      5-min Rain = 0
KCH1 150312Z 17010KT 27/18 A2988 RMK A01 T02700184  RH  059%=      5-min Rain = 0
KCH1 150313Z 17009KT 27/18 A2988 RMK A01 T02700183  RH  059%=      5-min Rain = 0
KCH1 150314Z 17008KT 27/18 A2988 RMK A01 T02710184  RH  059%=      5-min Rain = 0
KCH1 150315Z 17010KT 27/18 A2988 RMK A01 T02710184  RH  059%=      5-min Rain = 0
KCH1 150316Z 17010KT 27/18 A2988 RMK A01 T02710183  RH  059%=      5-min Rain = 0
KCH1 150317Z 17009KT 27/18 A2988 RMK A01 T02710183  RH  059%=      5-min Rain = 0
KCH1 150318Z 17009KT 27/18 A2988 RMK A01 T02710184  RH  059%=      5-min Rain = 0
KCH1 150319Z 17009KT 27/18 A2988 RMK A01 T02710183  RH  059%=      5-min Rain = 0
KCH1 150320Z 17007KT 27/18 A2988 RMK A01 T02710183  RH  059%=      5-min Rain = 0
KCH1 150321Z 17008KT 27/18 A2988 RMK A01 T02710184  RH  059%=      5-min Rain = 0
KCH1 150322Z 17008G13KT 27/18 A2988 RMK A01 T02700183  RH  059%=      5-min Rain = 0
KCH1 150323Z 17008KT 27/18 A2988 RMK A01 T02700184  RH  059%=      5-min Rain = 0
KCH1 150324Z 17008KT 27/18 A2988 RMK A01 T02700183  RH  059%=      5-min Rain = 0
KCH1 150325Z 17008KT 27/18 A2988 RMK A01 T02700183  RH  059%=      5-min Rain = 0
KCH1 150326Z 17008KT 27/18 A2988 RMK A01 T02700184  RH  059%=      5-min Rain = 0
KCH1 150327Z 17008KT 27/18 A2988 RMK A01 T02690183  RH  059%=      5-min Rain = 0
KCH1 150328Z 17008KT 27/18 A2988 RMK A01 T02690183  RH  059%=      5-min Rain = 0
KCH1 150329Z 17008KT 27/18 A2988 RMK A01 T02690183  RH  059%=      5-min Rain = 0
KCH1 150330Z 16008KT 27/18 A2988 RMK A01 T02680183  RH  059%=      5-min Rain = 0
KCH1 150331Z 17008KT 27/18 A2988 RMK A01 T02680183  RH  060%=      5-min Rain = 0
KCH1 150332Z 16008KT 27/18 A2988 RMK A01 T02680183  RH  060%=      5-min Rain = 0
KCH1 150333Z 17008KT 27/18 A2988 RMK A01 T02680183  RH  060%=      5-min Rain = 0
KCH1 150334Z 16006KT 27/18 A2988 RMK A01 T02670183  RH  060%=      5-min Rain = 0
KCH1 150335Z 17007KT 27/18 A2988 RMK A01 T02670183  RH  060%=      5-min Rain = 0
KCH1 150336Z 17008KT 27/18 A2989 RMK A01 T02660183  RH  060%=      5-min Rain = 0
KCH1 150337Z 17007KT 27/18 A2989 RMK A01 T02660183  RH  060%=      5-min Rain = 0
KCH1 150338Z 17007KT 27/18 A2989 RMK A01 T02660184  RH  061%=      5-min Rain = 0
KCH1 150339Z 17008KT 27/18 A2989 RMK A01 T02650183  RH  061%=      5-min Rain = 0
KCH1 150340Z 16006KT 27/18 A2989 RMK A01 T02650183  RH  061%=      5-min Rain = 0
KCH1 150341Z 17007KT 26/18 A2989 RMK A01 T02640183  RH  061%=      5-min Rain = 0
KCH1 150342Z 17008KT 26/18 A2989 RMK A01 T02640183  RH  061%=      5-min Rain = 0
KCH1 150343Z 17009KT 26/18 A2989 RMK A01 T02630183  RH  061%=      5-min Rain = 0
KCH1 150344Z 17009KT 26/18 A2989 RMK A01 T02630182  RH  061%=      5-min Rain = 0
KCH1 150345Z 17008KT 26/18 A2989 RMK A01 T02640182  RH  061%=      5-min Rain = 0
KCH1 150346Z 17009KT 26/18 A2989 RMK A01 T02640182  RH  061%=      5-min Rain = 0
KCH1 150347Z 17007KT 26/18 A2989 RMK A01 T02640182  RH  061%=      5-min Rain = 0
KCH1 150348Z 17009KT 26/18 A2989 RMK A01 T02640181  RH  061%=      5-min Rain = 0
KCH1 150349Z 17008KT 26/18 A2989 RMK A01 T02640182  RH  060%=      5-min Rain = 0
KCH1 150350Z 17008KT 26/18 A2989 RMK A01 T02640181  RH  060%=      5-min Rain = 0
KCH1 150351Z 18009KT 26/18 A2989 RMK A01 T02640181  RH  060%=      5-min Rain = 0
KCH1 150352Z 17009KT 26/18 A2989 RMK A01 T02640181  RH  060%=      5-min Rain = 0
KCH1 150353Z 17008KT 26/18 A2989 RMK A01 T02640181  RH  060%=      5-min Rain = 0
KCH1 150354Z 17010KT 26/18 A2989 RMK A01 T02640181  RH  060%=      5-min Rain = 0
KCH1 150355Z 17010KT 26/18 A2989 RMK A01 T02640180  RH  060%=      5-min Rain = 0
KCH1 150356Z 17007KT 26/18 A2989 RMK A01 T02640181  RH  060%=      5-min Rain = 0
KCH1 150357Z 17008KT 26/18 A2989 RMK A01 T02640182  RH  061%=      5-min Rain = 0
KCH1 150358Z 17008KT 26/18 A2989 RMK A01 T02630181  RH  061%=      5-min Rain = 0
KCH1 150359Z 17008KT 26/18 A2989 RMK A01 T02620181  RH  061%=      5-min Rain = 0
KCH1 150400Z 17007KT 26/18 A2989 RMK A01 T02620181  RH  061%=      5-min Rain = 0
KCH1 150401Z 17007KT 26/18 A2989 RMK A01 T02610182  RH  062%=      5-min Rain = 0
KCH1 150402Z 16007KT 26/18 A2989 RMK A01 T02600182  RH  062%=      5-min Rain = 0
KCH1 150403Z 17006KT 26/18 A2989 RMK A01 T02600182  RH  062%=      5-min Rain = 0
KCH1 150404Z 17006KT 26/18 A2989 RMK A01 T02590182  RH  063%=      5-min Rain = 0
KCH1 150405Z 16006KT 26/18 A2989 RMK A01 T02570182  RH  063%=      5-min Rain = 0
KCH1 150406Z 16007KT 26/18 A2989 RMK A01 T02570182  RH  063%=      5-min Rain = 0
KCH1 150407Z 16008KT 26/18 A2989 RMK A01 T02560182  RH  063%=      5-min Rain = 0
KCH1 150408Z 16007KT 26/18 A2989 RMK A01 T02560182  RH  064%=      5-min Rain = 0
KCH1 150409Z 16007KT 26/18 A2989 RMK A01 T02550182  RH  064%=      5-min Rain = 0
KCH1 150410Z 16006KT 26/18 A2989 RMK A01 T02550182  RH  064%=      5-min Rain = 0
KCH1 150411Z 16007KT 25/18 A2989 RMK A01 T02540182  RH  064%=      5-min Rain = 0
KCH1 150412Z 16006KT 25/18 A2989 RMK A01 T02540182  RH  064%=      5-min Rain = 0
KCH1 150413Z 16006KT 25/18 A2989 RMK A01 T02530182  RH  065%=      5-min Rain = 0
KCH1 150414Z 16006KT 25/18 A2989 RMK A01 T02530181  RH  065%=      5-min Rain = 0
KCH1 150415Z 15005KT 25/18 A2989 RMK A01 T02520182  RH  065%=      5-min Rain = 0
KCH1 150416Z 16007KT 25/18 A2989 RMK A01 T02520182  RH  065%=      5-min Rain = 0
KCH1 150417Z 15006KT 25/18 A2989 RMK A01 T02520181  RH  065%=      5-min Rain = 0
KCH1 150418Z 15007KT 25/18 A2989 RMK A01 T02520181  RH  065%=      5-min Rain = 0
KCH1 150419Z 16008KT 25/18 A2989 RMK A01 T02510181  RH  065%=      5-min Rain = 0
KCH1 150420Z 16006KT 25/18 A2989 RMK A01 T02510182  RH  065%=      5-min Rain = 0
KCH1 150421Z 16007KT 25/18 A2989 RMK A01 T02510181  RH  065%=      5-min Rain = 0
KCH1 150422Z 15007KT 25/18 A2989 RMK A01 T02510181  RH  065%=      5-min Rain = 0
KCH1 150423Z 16007KT 25/18 A2989 RMK A01 T02500181  RH  065%=      5-min Rain = 0
KCH1 150424Z 16007KT 25/18 A2989 RMK A01 T02500180  RH  065%=      5-min Rain = 0
KCH1 150425Z 16007KT 25/18 A2989 RMK A01 T02500180  RH  065%=      5-min Rain = 0
KCH1 150426Z 16007KT 25/18 A2989 RMK A01 T02500180  RH  065%=      5-min Rain = 0
KCH1 150427Z 16006KT 25/18 A2989 RMK A01 T02500181  RH  065%=      5-min Rain = 0
KCH1 150428Z 16008KT 25/18 A2989 RMK A01 T02490180  RH  065%=      5-min Rain = 0
KCH1 150429Z 16007KT 25/18 A2989 RMK A01 T02490180  RH  065%=      5-min Rain = 0
KCH1 150430Z 17007KT 25/18 A2988 RMK A01 T02490180  RH  065%=      5-min Rain = 0
KCH1 150431Z 16007KT 25/18 A2988 RMK A01 T02490180  RH  066%=      5-min Rain = 0
KCH1 150432Z 16007KT 25/18 A2988 RMK A01 T02480180  RH  066%=      5-min Rain = 0
KCH1 150433Z 16007KT 25/18 A2988 RMK A01 T02480180  RH  066%=      5-min Rain = 0
KCH1 150434Z 16008KT 25/18 A2988 RMK A01 T02480180  RH  066%=      5-min Rain = 0
KCH1 150435Z 16008KT 25/18 A2988 RMK A01 T02480180  RH  066%=      5-min Rain = 0
KCH1 150436Z 16008KT 25/18 A2988 RMK A01 T02470180  RH  066%=      5-min Rain = 0
KCH1 150437Z 16007KT 25/18 A2988 RMK A01 T02470180  RH  066%=      5-min Rain = 0
KCH1 150438Z 17008KT 25/18 A2988 RMK A01 T02470179  RH  066%=      5-min Rain = 0
KCH1 150439Z 16008KT 25/18 A2988 RMK A01 T02470179  RH  066%=      5-min Rain = 0
KCH1 150440Z 16008KT 25/18 A2988 RMK A01 T02460179  RH  066%=      5-min Rain = 0
KCH1 150441Z 16008KT 25/18 A2988 RMK A01 T02470179  RH  066%=      5-min Rain = 0
KCH1 150442Z 16008KT 25/18 A2988 RMK A01 T02470179  RH  066%=      5-min Rain = 0
KCH1 150443Z 16007KT 25/18 A2988 RMK A01 T02470179  RH  066%=      5-min Rain = 0
KCH1 150444Z 16008KT 25/18 A2988 RMK A01 T02470179  RH  066%=      5-min Rain = 0
KCH1 150445Z 16008KT 25/18 A2988 RMK A01 T02470179  RH  066%=      5-min Rain = 0
KCH1 150446Z 17008KT 25/18 A2988 RMK A01 T02470178  RH  066%=      5-min Rain = 0
KCH1 150447Z 16008KT 25/18 A2988 RMK A01 T02470179  RH  066%=      5-min Rain = 0
KCH1 150448Z 16007KT 25/18 A2988 RMK A01 T02460179  RH  066%=      5-min Rain = 0
KCH1 150449Z 16007KT 25/18 A2988 RMK A01 T02460179  RH  066%=      5-min Rain = 0
KCH1 150450Z 16008KT 25/18 A2988 RMK A01 T02460178  RH  066%=      5-min Rain = 0
KCH1 150451Z 17007KT 25/18 A2988 RMK A01 T02460178  RH  066%=      5-min Rain = 0
KCH1 150452Z 17007KT 25/18 A2988 RMK A01 T02460178  RH  066%=      5-min Rain = 0
KCH1 150453Z 17007KT 25/18 A2988 RMK A01 T02460179  RH  066%=      5-min Rain = 0
KCH1 150454Z 17007KT 25/18 A2988 RMK A01 T02450179  RH  067%=      5-min Rain = 0
KCH1 150455Z 17007KT 24/18 A2988 RMK A01 T02440179  RH  067%=      5-min Rain = 0
KCH1 150456Z 17007KT 24/18 A2988 RMK A01 T02430179  RH  067%=      5-min Rain = 0
KCH1 150457Z 17007KT 24/18 A2988 RMK A01 T02430180  RH  068%=      5-min Rain = 0
KCH1 150458Z 17007KT 24/18 A2988 RMK A01 T02420180  RH  068%=      5-min Rain = 0
KCH1 150459Z 17007KT 24/18 A2988 RMK A01 T02410180  RH  068%=      5-min Rain = 0

Page generated in 0.0718 seconds.